JAL15 KLAX-RJTT
Flight info
| Callsign | JAL15 |
|---|---|
| Flight time | 11h 2m |
| Altitude | 34000 |
| Route | SUMMR2 MCKEY DCT LIBBO DCT BRINY DCT BOARS DCT AMAKR DCT REDWD DCT TRYSH DCT GAPNE DCT 43N140W 45N150W/N0497F360 48N160W 50N170W 49N180E/N0499F380 46N170E 43N160E DCT KALNA/N0484F400 OTR5 ADNAP Y807 POLIX POLIX1D |
| Aircraft | A35K/H-SDE2E3GHIJ3J4J5LM1ORWXY/LB1D1 |
Departure
| Time | 2026-05-03 20:57 |
|---|---|
| Airport | Los Angeles International Airport (KLAX) |
Arrival
| Time | 2026-05-04 07:59 |
|---|---|
| Airport | Tokyo Haneda International Airport (RJTT) |
| Time | Latitude | Longitude | Altitude | Speed | Heading |
|---|---|---|---|---|---|
| 2026-05-03 20:15 | 33.94023 | -118.40931 | 101 ft | 0 kts | 263° |
| 2026-05-03 20:40 | 33.94024 | -118.40922 | 101 ft | 4 kts | 263° |
| 2026-05-03 20:40 | 33.94026 | -118.40894 | 102 ft | 2 kts | 263° |
| 2026-05-03 20:40 | 33.94031 | -118.40865 | 100 ft | 4 kts | 244° |
| 2026-05-03 20:41 | 33.94043 | -118.40843 | 100 ft | 4 kts | 216° |
| 2026-05-03 20:41 | 33.94061 | -118.40832 | 101 ft | 4 kts | 181° |
| 2026-05-03 20:41 | 33.94060 | -118.40831 | 101 ft | 4 kts | 173° |
| 2026-05-03 20:41 | 33.94033 | -118.40827 | 101 ft | 4 kts | 173° |
| 2026-05-03 20:42 | 33.94010 | -118.40823 | 102 ft | 1 kts | 173° |
| 2026-05-03 20:42 | 33.94009 | -118.40823 | 102 ft | 0 kts | 173° |
| 2026-05-03 20:46 | 33.94005 | -118.40823 | 102 ft | 1 kts | 173° |
| 2026-05-03 20:46 | 33.93998 | -118.40822 | 103 ft | 1 kts | 173° |
| 2026-05-03 20:47 | 33.93983 | -118.40820 | 103 ft | 3 kts | 173° |
| 2026-05-03 20:47 | 33.93962 | -118.40817 | 102 ft | 3 kts | 173° |
| 2026-05-03 20:47 | 33.93939 | -118.40814 | 102 ft | 4 kts | 173° |
| 2026-05-03 20:47 | 33.93916 | -118.40807 | 104 ft | 3 kts | 158° |
| 2026-05-03 20:48 | 33.93900 | -118.40793 | 104 ft | 3 kts | 138° |
| 2026-05-03 20:48 | 33.93886 | -118.40773 | 105 ft | 3 kts | 130° |
| 2026-05-03 20:48 | 33.93869 | -118.40753 | 105 ft | 3 kts | 137° |
| 2026-05-03 20:48 | 33.93852 | -118.40742 | 106 ft | 2 kts | 159° |
| 2026-05-03 20:49 | 33.93839 | -118.40733 | 105 ft | 2 kts | 149° |
| 2026-05-03 20:49 | 33.93828 | -118.40722 | 106 ft | 3 kts | 136° |
| 2026-05-03 20:49 | 33.93815 | -118.40688 | 107 ft | 7 kts | 107° |
| 2026-05-03 20:49 | 33.93816 | -118.40611 | 108 ft | 12 kts | 82° |
| 2026-05-03 20:50 | 33.93828 | -118.40500 | 109 ft | 14 kts | 83° |
| 2026-05-03 20:50 | 33.93839 | -118.40380 | 109 ft | 14 kts | 83° |
| 2026-05-03 20:50 | 33.93852 | -118.40259 | 110 ft | 15 kts | 82° |
| 2026-05-03 20:50 | 33.93865 | -118.40133 | 110 ft | 15 kts | 82° |
| 2026-05-03 20:51 | 33.93877 | -118.40004 | 110 ft | 16 kts | 83° |
| 2026-05-03 20:51 | 33.93891 | -118.39872 | 110 ft | 17 kts | 83° |
| 2026-05-03 20:51 | 33.93905 | -118.39730 | 109 ft | 17 kts | 82° |
| 2026-05-03 20:51 | 33.93920 | -118.39588 | 109 ft | 17 kts | 83° |
| 2026-05-03 20:52 | 33.93935 | -118.39441 | 108 ft | 18 kts | 83° |
| 2026-05-03 20:52 | 33.93950 | -118.39310 | 107 ft | 19 kts | 82° |
| 2026-05-03 20:52 | 33.93966 | -118.39148 | 107 ft | 19 kts | 83° |
| 2026-05-03 20:52 | 33.93981 | -118.38990 | 108 ft | 19 kts | 83° |
| 2026-05-03 20:53 | 33.93997 | -118.38831 | 107 ft | 19 kts | 83° |
| 2026-05-03 20:53 | 33.94015 | -118.38668 | 108 ft | 20 kts | 83° |
| 2026-05-03 20:53 | 33.94030 | -118.38505 | 109 ft | 19 kts | 83° |
| 2026-05-03 20:53 | 33.94048 | -118.38343 | 109 ft | 20 kts | 83° |
| 2026-05-03 20:54 | 33.94065 | -118.38179 | 109 ft | 18 kts | 82° |
| 2026-05-03 20:54 | 33.94076 | -118.38049 | 108 ft | 0 kts | 92° |
| 2026-05-03 20:55 | 33.94076 | -118.38046 | 108 ft | 1 kts | 99° |
| 2026-05-03 20:55 | 33.94072 | -118.38039 | 109 ft | 2 kts | 113° |
| 2026-05-03 20:55 | 33.94064 | -118.38023 | 109 ft | 2 kts | 124° |
| 2026-05-03 20:55 | 33.94054 | -118.38012 | 111 ft | 2 kts | 139° |
| 2026-05-03 20:56 | 33.94025 | -118.38000 | 112 ft | 8 kts | 169° |
| 2026-05-03 20:56 | 33.93982 | -118.38038 | 114 ft | 9 kts | 257° |
| 2026-05-03 20:56 | 33.93972 | -118.38149 | 115 ft | 23 kts | 263° |
| 2026-05-03 20:56 | 33.93927 | -118.38576 | 112 ft | 82 kts | 262° |
| 2026-05-03 20:57 | 33.93831 | -118.39514 | 113 ft | 137 kts | 263° |
| 2026-05-03 20:57 | 33.93682 | -118.40870 | 140 ft | 183 kts | 259° |
| 2026-05-03 20:57 | 33.93533 | -118.42385 | 846 ft | 178 kts | 262° |
| 2026-05-03 20:57 | 33.93381 | -118.43828 | 1698 ft | 174 kts | 259° |
| 2026-05-03 20:58 | 33.93198 | -118.45293 | 2127 ft | 182 kts | 260° |
| 2026-05-03 20:58 | 33.93018 | -118.46889 | 2292 ft | 204 kts | 261° |
| 2026-05-03 20:58 | 33.92867 | -118.48693 | 2400 ft | 230 kts | 264° |
| 2026-05-03 20:58 | 33.92734 | -118.50679 | 2806 ft | 243 kts | 264° |
| 2026-05-03 20:59 | 33.92587 | -118.52740 | 3359 ft | 250 kts | 263° |
| 2026-05-03 20:59 | 33.92423 | -118.54854 | 3873 ft | 257 kts | 263° |
| 2026-05-03 20:59 | 33.92250 | -118.57020 | 4432 ft | 261 kts | 263° |
| 2026-05-03 20:59 | 33.92073 | -118.59214 | 5043 ft | 264 kts | 263° |
| 2026-05-03 21:00 | 33.91892 | -118.61427 | 5700 ft | 266 kts | 262° |
| 2026-05-03 21:00 | 33.91835 | -118.62172 | 5919 ft | 267 kts | 263° |
| 2026-05-03 21:00 | 33.91756 | -118.65919 | 6976 ft | 271 kts | 267° |
| 2026-05-03 21:00 | 33.91752 | -118.68195 | 7622 ft | 273 kts | 267° |
| 2026-05-03 21:01 | 33.91747 | -118.70480 | 8294 ft | 275 kts | 267° |
| 2026-05-03 21:01 | 33.91740 | -118.72779 | 8972 ft | 277 kts | 266° |
| 2026-05-03 21:01 | 33.91735 | -118.74245 | 9421 ft | 277 kts | 266° |
| 2026-05-03 21:01 | 33.91723 | -118.77246 | 10246 ft | 281 kts | 266° |
| 2026-05-03 21:02 | 33.91715 | -118.78865 | 10469 ft | 291 kts | 266° |
| 2026-05-03 21:02 | 33.91701 | -118.81306 | 10816 ft | 303 kts | 266° |
| 2026-05-03 21:02 | 33.91689 | -118.83915 | 11186 ft | 316 kts | 266° |
| 2026-05-03 21:02 | 33.91741 | -118.86612 | 11523 ft | 330 kts | 269° |
| 2026-05-03 21:03 | 33.91843 | -118.89439 | 11832 ft | 343 kts | 270° |
| 2026-05-03 21:03 | 33.91945 | -118.92373 | 12127 ft | 356 kts | 269° |
| 2026-05-03 21:03 | 33.92043 | -118.95410 | 12408 ft | 369 kts | 269° |
| 2026-05-03 21:03 | 33.92146 | -118.98539 | 12721 ft | 379 kts | 270° |
| 2026-05-03 21:04 | 33.92567 | -119.01668 | 13198 ft | 388 kts | 284° |
| 2026-05-03 21:04 | 33.93719 | -119.04643 | 13762 ft | 396 kts | 297° |
| 2026-05-03 21:04 | 33.95173 | -119.07477 | 14255 ft | 399 kts | 298° |
| 2026-05-03 21:04 | 33.96665 | -119.10312 | 14788 ft | 401 kts | 298° |
| 2026-05-03 21:05 | 33.98159 | -119.13167 | 15340 ft | 403 kts | 298° |
| 2026-05-03 21:05 | 33.99663 | -119.16033 | 15875 ft | 406 kts | 299° |
| 2026-05-03 21:05 | 34.01426 | -119.18716 | 16418 ft | 413 kts | 310° |
| 2026-05-03 21:05 | 34.03647 | -119.20963 | 16974 ft | 420 kts | 319° |
| 2026-05-03 21:06 | 34.06041 | -119.23026 | 17535 ft | 423 kts | 320° |
| 2026-05-03 21:06 | 34.08453 | -119.25073 | 18072 ft | 425 kts | 320° |
| 2026-05-03 21:06 | 34.10880 | -119.27143 | 18577 ft | 428 kts | 320° |
| 2026-05-03 21:06 | 34.13314 | -119.29226 | 19069 ft | 429 kts | 319° |
| 2026-05-03 21:07 | 34.15750 | -119.31317 | 19590 ft | 430 kts | 318° |
| 2026-05-03 21:07 | 34.18160 | -119.33391 | 20087 ft | 431 kts | 318° |
| 2026-05-03 21:07 | 34.20602 | -119.35495 | 20606 ft | 432 kts | 317° |
| 2026-05-03 21:07 | 34.23064 | -119.37619 | 21101 ft | 434 kts | 317° |
| 2026-05-03 21:08 | 34.25524 | -119.39744 | 21624 ft | 435 kts | 316° |
| 2026-05-03 21:08 | 34.27994 | -119.41879 | 22120 ft | 437 kts | 316° |
| 2026-05-03 21:08 | 34.30464 | -119.44016 | 22626 ft | 439 kts | 316° |
| 2026-05-03 21:08 | 34.32959 | -119.46177 | 23120 ft | 442 kts | 316° |
| 2026-05-03 21:09 | 34.35459 | -119.48344 | 23591 ft | 444 kts | 315° |
| 2026-05-03 21:09 | 34.37993 | -119.50541 | 23957 ft | 447 kts | 315° |
| 2026-05-03 21:09 | 34.40463 | -119.52825 | 24329 ft | 444 kts | 310° |
| 2026-05-03 21:09 | 34.42605 | -119.55378 | 24768 ft | 437 kts | 303° |
| 2026-05-03 21:10 | 34.44587 | -119.58151 | 25249 ft | 436 kts | 302° |
| 2026-05-03 21:10 | 34.46528 | -119.60909 | 25721 ft | 436 kts | 301° |
| 2026-05-03 21:10 | 34.48539 | -119.63763 | 26231 ft | 437 kts | 301° |
| 2026-05-03 21:10 | 34.50509 | -119.66558 | 26700 ft | 437 kts | 301° |
| 2026-05-03 21:11 | 34.52502 | -119.69384 | 26997 ft | 441 kts | 301° |
| 2026-05-03 21:11 | 34.54469 | -119.72179 | 27406 ft | 442 kts | 301° |
| 2026-05-03 21:11 | 34.56431 | -119.74975 | 27824 ft | 443 kts | 301° |
| 2026-05-03 21:11 | 34.58410 | -119.77796 | 28293 ft | 442 kts | 300° |
| 2026-05-03 21:12 | 34.60425 | -119.80669 | 28746 ft | 443 kts | 300° |
| 2026-05-03 21:12 | 34.62420 | -119.83515 | 29200 ft | 442 kts | 300° |
| 2026-05-03 21:12 | 34.64404 | -119.86343 | 29856 ft | 437 kts | 299° |
| 2026-05-03 21:12 | 34.66369 | -119.89142 | 30452 ft | 433 kts | 299° |
| 2026-05-03 21:13 | 34.68321 | -119.91933 | 30822 ft | 433 kts | 299° |
| 2026-05-03 21:13 | 34.70271 | -119.94731 | 31157 ft | 433 kts | 299° |
| 2026-05-03 21:13 | 34.72219 | -119.97523 | 31527 ft | 433 kts | 299° |
| 2026-05-03 21:13 | 34.74164 | -120.00313 | 31908 ft | 432 kts | 299° |
| 2026-05-03 21:14 | 34.76105 | -120.03096 | 32241 ft | 432 kts | 299° |
| 2026-05-03 21:14 | 34.78051 | -120.05890 | 32554 ft | 432 kts | 299° |
| 2026-05-03 21:14 | 34.79994 | -120.08686 | 32727 ft | 433 kts | 299° |
| 2026-05-03 21:14 | 34.81933 | -120.11472 | 33166 ft | 430 kts | 299° |
| 2026-05-03 21:15 | 34.83843 | -120.14216 | 33426 ft | 430 kts | 299° |
| 2026-05-03 21:15 | 34.85769 | -120.16991 | 33738 ft | 429 kts | 299° |
| 2026-05-03 21:15 | 34.87701 | -120.19778 | 33988 ft | 429 kts | 299° |
| 2026-05-03 21:15 | 34.89630 | -120.22566 | 34022 ft | 432 kts | 299° |
| 2026-05-03 21:16 | 34.93522 | -120.28185 | 34028 ft | 433 kts | 299° |
| 2026-05-03 21:16 | 34.97411 | -120.33809 | 34026 ft | 433 kts | 299° |
| 2026-05-03 21:17 | 35.00628 | -120.38469 | 34029 ft | 433 kts | 299° |
| 2026-05-03 21:17 | 35.05131 | -120.45004 | 34031 ft | 432 kts | 299° |
| 2026-05-03 21:18 | 35.08996 | -120.50622 | 34019 ft | 432 kts | 298° |
| 2026-05-03 21:18 | 35.12860 | -120.56249 | 34017 ft | 431 kts | 298° |
| 2026-05-03 21:19 | 35.16709 | -120.61865 | 34013 ft | 431 kts | 298° |
| 2026-05-03 21:19 | 35.20560 | -120.67488 | 34014 ft | 431 kts | 298° |
| 2026-05-03 21:20 | 35.24428 | -120.73146 | 34005 ft | 430 kts | 298° |
| 2026-05-03 21:20 | 35.28262 | -120.78769 | 34014 ft | 430 kts | 298° |
| 2026-05-03 21:21 | 35.32095 | -120.84394 | 34026 ft | 430 kts | 298° |
| 2026-05-03 21:21 | 35.35939 | -120.90046 | 34026 ft | 430 kts | 298° |
| 2026-05-03 21:22 | 35.39765 | -120.95681 | 34036 ft | 430 kts | 298° |
| 2026-05-03 21:22 | 35.43588 | -121.01320 | 34044 ft | 431 kts | 298° |
| 2026-05-03 21:23 | 35.47427 | -121.06993 | 34041 ft | 431 kts | 298° |
| 2026-05-03 21:23 | 35.51292 | -121.12661 | 34038 ft | 433 kts | 299° |
| 2026-05-03 21:24 | 35.55222 | -121.18280 | 34039 ft | 434 kts | 299° |
| 2026-05-03 21:24 | 35.59193 | -121.23962 | 34037 ft | 434 kts | 299° |
| 2026-05-03 21:25 | 35.63107 | -121.29601 | 34027 ft | 435 kts | 299° |
| 2026-05-03 21:25 | 35.67030 | -121.35276 | 34033 ft | 437 kts | 299° |
| 2026-05-03 21:26 | 35.70978 | -121.40996 | 34040 ft | 439 kts | 300° |
| 2026-05-03 21:26 | 35.74964 | -121.46778 | 34037 ft | 440 kts | 300° |
| 2026-05-03 21:27 | 35.78913 | -121.52516 | 34030 ft | 442 kts | 300° |
| 2026-05-03 21:27 | 35.82897 | -121.58314 | 34032 ft | 443 kts | 300° |
| 2026-05-03 21:28 | 35.86892 | -121.64137 | 34030 ft | 445 kts | 300° |
| 2026-05-03 21:28 | 35.90889 | -121.69975 | 34026 ft | 446 kts | 300° |
| 2026-05-03 21:29 | 35.94906 | -121.75853 | 34030 ft | 448 kts | 301° |
| 2026-05-03 21:29 | 35.99140 | -121.81646 | 34029 ft | 461 kts | 308° |
| 2026-05-03 21:30 | 36.01686 | -121.84129 | 34030 ft | 473 kts | 317° |
| 2026-05-03 21:30 | 36.04560 | -121.86216 | 34030 ft | 482 kts | 322° |
| 2026-05-03 21:30 | 36.09583 | -121.89428 | 34032 ft | 487 kts | 324° |
| 2026-05-03 21:31 | 36.15673 | -121.93166 | 34031 ft | 489 kts | 324° |
| 2026-05-03 21:31 | 36.21771 | -121.96934 | 34036 ft | 490 kts | 324° |
| 2026-05-03 21:32 | 36.27857 | -122.00740 | 34041 ft | 490 kts | 325° |
| 2026-05-03 21:32 | 36.33952 | -122.04572 | 34038 ft | 491 kts | 325° |
| 2026-05-03 21:33 | 36.40056 | -122.08419 | 34030 ft | 492 kts | 326° |
| 2026-05-03 21:33 | 36.46171 | -122.12278 | 34046 ft | 493 kts | 326° |
| 2026-05-03 21:34 | 36.52310 | -122.16156 | 34035 ft | 495 kts | 327° |
| 2026-05-03 21:34 | 36.58458 | -122.20045 | 34040 ft | 496 kts | 327° |
| 2026-05-03 21:35 | 36.64603 | -122.23941 | 34040 ft | 497 kts | 327° |
| 2026-05-03 21:35 | 36.70769 | -122.27858 | 34040 ft | 498 kts | 328° |
| 2026-05-03 21:36 | 36.76982 | -122.31812 | 34041 ft | 498 kts | 328° |
| 2026-05-03 21:36 | 36.83175 | -122.35761 | 34033 ft | 500 kts | 328° |
| 2026-05-03 21:37 | 36.89375 | -122.39721 | 34027 ft | 501 kts | 329° |
| 2026-05-03 21:37 | 36.95548 | -122.43672 | 34025 ft | 501 kts | 329° |
| 2026-05-03 21:38 | 37.01752 | -122.47649 | 34022 ft | 502 kts | 329° |
| 2026-05-03 21:38 | 37.08005 | -122.51664 | 34016 ft | 502 kts | 329° |
| 2026-05-03 21:39 | 37.14232 | -122.55670 | 34011 ft | 503 kts | 329° |
| 2026-05-03 21:39 | 37.20420 | -122.59659 | 34008 ft | 503 kts | 330° |
| 2026-05-03 21:40 | 37.26685 | -122.63705 | 34008 ft | 504 kts | 330° |
| 2026-05-03 21:40 | 37.33063 | -122.67433 | 34007 ft | 506 kts | 335° |
| 2026-05-03 21:41 | 37.39595 | -122.70734 | 34009 ft | 506 kts | 336° |
| 2026-05-03 21:41 | 37.46157 | -122.73997 | 34010 ft | 506 kts | 337° |
| 2026-05-03 21:42 | 37.52702 | -122.77261 | 34008 ft | 506 kts | 337° |
| 2026-05-03 21:42 | 37.59264 | -122.80549 | 34006 ft | 507 kts | 337° |
| 2026-05-03 21:43 | 37.65830 | -122.83849 | 33998 ft | 507 kts | 338° |
| 2026-05-03 21:43 | 37.72391 | -122.87151 | 33990 ft | 507 kts | 338° |
| 2026-05-03 21:44 | 37.78940 | -122.90454 | 33991 ft | 507 kts | 338° |
| 2026-05-03 21:44 | 37.85487 | -122.93762 | 33986 ft | 506 kts | 338° |
| 2026-05-03 21:45 | 37.92037 | -122.97079 | 33984 ft | 506 kts | 339° |
| 2026-05-03 21:45 | 37.98604 | -123.00411 | 33985 ft | 507 kts | 339° |
| 2026-05-03 21:46 | 38.05150 | -123.03739 | 33985 ft | 507 kts | 339° |
| 2026-05-03 21:46 | 38.11700 | -123.07074 | 33979 ft | 507 kts | 339° |
| 2026-05-03 21:47 | 38.18259 | -123.10421 | 33982 ft | 507 kts | 340° |
| 2026-05-03 21:47 | 38.24641 | -123.14289 | 33984 ft | 509 kts | 330° |
| 2026-05-03 21:48 | 38.30698 | -123.19003 | 33978 ft | 511 kts | 330° |
| 2026-05-03 21:48 | 38.36713 | -123.23829 | 33982 ft | 512 kts | 330° |
| 2026-05-03 21:49 | 38.42752 | -123.28687 | 33975 ft | 514 kts | 330° |
| 2026-05-03 21:49 | 38.48821 | -123.33561 | 33977 ft | 514 kts | 330° |
| 2026-05-03 21:50 | 38.54883 | -123.38432 | 33979 ft | 515 kts | 330° |
| 2026-05-03 21:50 | 38.60960 | -123.43324 | 33980 ft | 516 kts | 330° |
| 2026-05-03 21:51 | 38.67043 | -123.48230 | 33974 ft | 517 kts | 331° |
| 2026-05-03 21:51 | 38.73168 | -123.53183 | 33976 ft | 518 kts | 331° |
| 2026-05-03 21:52 | 38.79236 | -123.58099 | 33974 ft | 519 kts | 331° |
| 2026-05-03 21:52 | 38.85377 | -123.63083 | 33974 ft | 519 kts | 331° |
| 2026-05-03 21:53 | 38.91489 | -123.68054 | 33970 ft | 519 kts | 331° |
| 2026-05-03 21:53 | 38.97442 | -123.73346 | 33976 ft | 525 kts | 322° |
| 2026-05-03 21:54 | 38.99995 | -123.76709 | 33984 ft | 529 kts | 311° |
| 2026-05-03 21:54 | 39.02081 | -123.80620 | 33985 ft | 532 kts | 301° |
| 2026-05-03 21:54 | 39.05497 | -123.89100 | 33983 ft | 535 kts | 297° |
| 2026-05-03 21:55 | 39.08696 | -123.97711 | 33982 ft | 536 kts | 297° |
| 2026-05-03 21:55 | 39.11908 | -124.06375 | 33983 ft | 536 kts | 297° |
| 2026-05-03 21:56 | 39.15146 | -124.15028 | 33978 ft | 536 kts | 297° |
| 2026-05-03 21:56 | 39.18389 | -124.23669 | 33981 ft | 536 kts | 297° |
| 2026-05-03 21:57 | 39.21635 | -124.32337 | 33977 ft | 536 kts | 297° |
| 2026-05-03 21:57 | 39.24872 | -124.41012 | 33977 ft | 536 kts | 297° |
| 2026-05-03 21:58 | 39.27549 | -124.48207 | 33978 ft | 536 kts | 297° |
| 2026-05-03 21:58 | 39.31305 | -124.58333 | 33977 ft | 536 kts | 297° |
| 2026-05-03 21:59 | 39.34518 | -124.67021 | 33975 ft | 536 kts | 297° |
| 2026-05-03 21:59 | 39.37191 | -124.74271 | 33976 ft | 536 kts | 297° |
| 2026-05-03 22:00 | 39.40393 | -124.82977 | 33973 ft | 536 kts | 297° |
| 2026-05-03 22:00 | 39.43584 | -124.91680 | 33974 ft | 535 kts | 297° |
| 2026-05-03 22:01 | 39.46766 | -125.00384 | 33972 ft | 535 kts | 297° |
| 2026-05-03 22:01 | 39.49938 | -125.09085 | 33969 ft | 534 kts | 297° |
| 2026-05-03 22:02 | 39.53103 | -125.17792 | 33990 ft | 533 kts | 297° |
| 2026-05-03 22:02 | 39.56258 | -125.26498 | 33966 ft | 533 kts | 297° |
| 2026-05-03 22:03 | 39.59308 | -125.34939 | 33985 ft | 532 kts | 297° |
| 2026-05-03 22:03 | 39.62489 | -125.43768 | 33976 ft | 532 kts | 297° |
| 2026-05-03 22:04 | 39.65611 | -125.52458 | 33971 ft | 531 kts | 297° |
| 2026-05-03 22:04 | 39.68703 | -125.61094 | 33969 ft | 530 kts | 297° |
| 2026-05-03 22:05 | 39.71821 | -125.69826 | 33965 ft | 529 kts | 297° |
| 2026-05-03 22:05 | 39.74889 | -125.78443 | 33966 ft | 528 kts | 297° |
| 2026-05-03 22:06 | 39.77965 | -125.87111 | 33965 ft | 528 kts | 297° |
| 2026-05-03 22:06 | 39.81038 | -125.95794 | 33967 ft | 527 kts | 297° |
| 2026-05-03 22:07 | 39.84098 | -126.04468 | 33960 ft | 527 kts | 297° |
| 2026-05-03 22:07 | 39.87136 | -126.13104 | 33968 ft | 527 kts | 297° |
| 2026-05-03 22:08 | 39.90131 | -126.21646 | 33968 ft | 526 kts | 296° |
| 2026-05-03 22:08 | 39.93154 | -126.30291 | 33960 ft | 524 kts | 296° |
| 2026-05-03 22:09 | 39.96180 | -126.38970 | 33960 ft | 523 kts | 296° |
| 2026-05-03 22:10 | 40.00672 | -126.51919 | 33965 ft | 521 kts | 296° |
| 2026-05-03 22:10 | 40.03406 | -126.60674 | 33971 ft | 521 kts | 293° |
| 2026-05-03 22:11 | 40.05978 | -126.69432 | 33966 ft | 520 kts | 293° |
| 2026-05-03 22:11 | 40.08592 | -126.78223 | 33967 ft | 519 kts | 293° |
| 2026-05-03 22:12 | 40.11239 | -126.87013 | 33974 ft | 518 kts | 293° |
| 2026-05-03 22:12 | 40.13876 | -126.95766 | 33970 ft | 518 kts | 293° |
| 2026-05-03 22:13 | 40.16507 | -127.04539 | 33971 ft | 517 kts | 293° |
| 2026-05-03 22:13 | 40.19132 | -127.13307 | 33967 ft | 517 kts | 293° |
| 2026-05-03 22:14 | 40.21752 | -127.22072 | 33966 ft | 516 kts | 293° |
| 2026-05-03 22:14 | 40.24343 | -127.30781 | 33966 ft | 516 kts | 293° |
| 2026-05-03 22:15 | 40.26958 | -127.39599 | 33970 ft | 516 kts | 292° |
| 2026-05-03 22:15 | 40.29535 | -127.48323 | 33968 ft | 516 kts | 292° |
| 2026-05-03 22:16 | 40.32123 | -127.57112 | 33974 ft | 516 kts | 292° |
| 2026-05-03 22:16 | 40.34708 | -127.65918 | 33969 ft | 517 kts | 292° |
| 2026-05-03 22:17 | 40.37281 | -127.74714 | 33971 ft | 517 kts | 292° |
| 2026-05-03 22:17 | 40.39840 | -127.83494 | 33975 ft | 517 kts | 292° |
| 2026-05-03 22:18 | 40.42404 | -127.92320 | 33979 ft | 517 kts | 292° |
| 2026-05-03 22:18 | 40.44956 | -128.01133 | 33977 ft | 517 kts | 292° |
| 2026-05-03 22:19 | 40.47507 | -128.09971 | 33975 ft | 515 kts | 292° |
| 2026-05-03 22:19 | 40.50041 | -128.18784 | 33977 ft | 515 kts | 292° |
| 2026-05-03 22:20 | 40.52550 | -128.27536 | 33978 ft | 514 kts | 292° |
| 2026-05-03 22:20 | 40.55056 | -128.36309 | 33980 ft | 512 kts | 292° |
| 2026-05-03 22:21 | 40.57556 | -128.45092 | 33981 ft | 511 kts | 292° |
| 2026-05-03 22:21 | 40.60041 | -128.53847 | 33983 ft | 510 kts | 292° |
| 2026-05-03 22:22 | 40.62509 | -128.62577 | 33980 ft | 508 kts | 292° |
| 2026-05-03 22:22 | 40.64969 | -128.71307 | 33985 ft | 507 kts | 292° |
| 2026-05-03 22:23 | 40.67401 | -128.79968 | 33986 ft | 507 kts | 292° |
| 2026-05-03 22:23 | 40.69840 | -128.88680 | 33987 ft | 506 kts | 292° |
| 2026-05-03 22:24 | 40.72263 | -128.97368 | 33990 ft | 505 kts | 292° |
| 2026-05-03 22:24 | 40.74686 | -129.06087 | 33988 ft | 505 kts | 292° |
| 2026-05-03 22:25 | 40.77097 | -129.14789 | 33991 ft | 504 kts | 292° |
| 2026-05-03 22:25 | 40.79498 | -129.23486 | 33995 ft | 503 kts | 292° |
| 2026-05-03 22:26 | 40.81883 | -129.32157 | 33994 ft | 503 kts | 293° |
| 2026-05-03 22:26 | 40.84263 | -129.40839 | 33995 ft | 502 kts | 293° |
| 2026-05-03 22:27 | 40.86623 | -129.49473 | 33999 ft | 502 kts | 293° |
| 2026-05-03 22:27 | 40.88991 | -129.58170 | 34005 ft | 502 kts | 293° |
| 2026-05-03 22:28 | 40.91350 | -129.66864 | 34003 ft | 502 kts | 294° |
| 2026-05-03 22:28 | 40.93698 | -129.75549 | 34003 ft | 502 kts | 294° |
| 2026-05-03 22:29 | 40.96040 | -129.84241 | 34005 ft | 502 kts | 294° |
| 2026-05-03 22:29 | 40.98381 | -129.92959 | 34010 ft | 502 kts | 294° |
| 2026-05-03 22:30 | 41.00700 | -130.01625 | 34014 ft | 502 kts | 294° |
| 2026-05-03 22:30 | 41.03023 | -130.10338 | 34012 ft | 502 kts | 294° |
| 2026-05-03 22:31 | 41.05345 | -130.19079 | 34013 ft | 502 kts | 294° |
| 2026-05-03 22:31 | 41.07659 | -130.27819 | 34019 ft | 503 kts | 295° |
| 2026-05-03 22:32 | 41.09969 | -130.36572 | 34028 ft | 503 kts | 295° |
| 2026-05-03 22:32 | 41.12276 | -130.45350 | 34022 ft | 503 kts | 295° |
| 2026-05-03 22:33 | 41.14555 | -130.54054 | 34023 ft | 503 kts | 295° |
| 2026-05-03 22:33 | 41.16845 | -130.62828 | 34029 ft | 503 kts | 295° |
| 2026-05-03 22:34 | 41.19126 | -130.71602 | 34029 ft | 502 kts | 296° |
| 2026-05-03 22:34 | 41.21370 | -130.80389 | 34033 ft | 503 kts | 295° |
| 2026-05-03 22:35 | 41.23484 | -130.89260 | 34038 ft | 504 kts | 295° |
| 2026-05-03 22:35 | 41.25569 | -130.98125 | 34049 ft | 504 kts | 295° |
| 2026-05-03 22:36 | 41.27676 | -131.07031 | 34039 ft | 504 kts | 295° |
| 2026-05-03 22:36 | 41.29431 | -131.14423 | 34043 ft | 504 kts | 296° |
| 2026-05-03 22:37 | 41.31882 | -131.24784 | 34042 ft | 504 kts | 296° |
| 2026-05-03 22:37 | 41.33984 | -131.33705 | 34052 ft | 505 kts | 296° |
| 2026-05-03 22:38 | 41.35735 | -131.41167 | 34049 ft | 505 kts | 296° |
| 2026-05-03 22:38 | 41.37816 | -131.50068 | 34051 ft | 505 kts | 296° |
| 2026-05-03 22:39 | 41.39901 | -131.59021 | 34059 ft | 505 kts | 296° |
| 2026-05-03 22:39 | 41.41976 | -131.67966 | 34058 ft | 505 kts | 296° |
| 2026-05-03 22:40 | 41.44047 | -131.76930 | 34066 ft | 505 kts | 297° |
| 2026-05-03 22:40 | 41.46109 | -131.85890 | 34069 ft | 506 kts | 297° |
| 2026-05-03 22:41 | 41.48165 | -131.94860 | 34071 ft | 506 kts | 297° |
| 2026-05-03 22:41 | 41.50207 | -132.03803 | 34071 ft | 506 kts | 297° |
| 2026-05-03 22:42 | 41.52265 | -132.12851 | 34076 ft | 506 kts | 297° |
| 2026-05-03 22:42 | 41.54306 | -132.21865 | 34080 ft | 507 kts | 297° |
| 2026-05-03 22:43 | 41.56338 | -132.30882 | 34081 ft | 507 kts | 297° |
| 2026-05-03 22:43 | 41.58365 | -132.39905 | 34085 ft | 507 kts | 297° |
| 2026-05-03 22:44 | 41.60370 | -132.48872 | 34090 ft | 507 kts | 297° |
| 2026-05-03 22:44 | 41.62384 | -132.57916 | 34094 ft | 507 kts | 297° |
| 2026-05-03 22:45 | 41.64390 | -132.66957 | 34090 ft | 507 kts | 297° |
| 2026-05-03 22:45 | 41.66388 | -132.76001 | 34095 ft | 506 kts | 297° |
| 2026-05-03 22:46 | 41.68376 | -132.85039 | 34094 ft | 506 kts | 297° |
| 2026-05-03 22:46 | 41.70354 | -132.94071 | 34094 ft | 505 kts | 297° |
| 2026-05-03 22:47 | 41.72312 | -133.03047 | 34106 ft | 505 kts | 297° |
| 2026-05-03 22:47 | 41.74275 | -133.12080 | 34103 ft | 504 kts | 296° |
| 2026-05-03 22:48 | 41.76226 | -133.21101 | 34108 ft | 504 kts | 296° |
| 2026-05-03 22:48 | 41.78169 | -133.30120 | 34108 ft | 503 kts | 296° |
| 2026-05-03 22:49 | 41.80092 | -133.39086 | 34117 ft | 502 kts | 296° |
| 2026-05-03 22:49 | 41.82026 | -133.48143 | 34115 ft | 502 kts | 296° |
| 2026-05-03 22:50 | 41.83930 | -133.57096 | 34120 ft | 502 kts | 296° |
| 2026-05-03 22:50 | 41.85836 | -133.66097 | 34128 ft | 501 kts | 296° |
| 2026-05-03 22:51 | 41.87733 | -133.75091 | 34126 ft | 501 kts | 296° |
| 2026-05-03 22:51 | 41.89624 | -133.84100 | 34128 ft | 501 kts | 295° |
| 2026-05-03 22:52 | 41.91505 | -133.93098 | 34132 ft | 500 kts | 295° |
| 2026-05-03 22:52 | 41.93379 | -134.02101 | 34142 ft | 500 kts | 295° |
| 2026-05-03 22:53 | 41.95244 | -134.11096 | 34136 ft | 500 kts | 295° |
| 2026-05-03 22:53 | 41.97100 | -134.20090 | 34141 ft | 499 kts | 295° |
| 2026-05-03 22:54 | 41.98947 | -134.29085 | 34145 ft | 499 kts | 295° |
| 2026-05-03 22:54 | 42.00787 | -134.38084 | 34150 ft | 498 kts | 294° |
| 2026-05-03 22:55 | 42.02606 | -134.47015 | 34149 ft | 498 kts | 294° |
| 2026-05-03 22:55 | 42.04426 | -134.55994 | 34153 ft | 497 kts | 294° |
| 2026-05-03 22:56 | 42.06237 | -134.64963 | 34158 ft | 497 kts | 294° |
| 2026-05-03 22:56 | 42.08041 | -134.73939 | 34162 ft | 496 kts | 294° |
| 2026-05-03 22:57 | 42.09836 | -134.82913 | 34164 ft | 496 kts | 294° |
| 2026-05-03 22:57 | 42.11622 | -134.91878 | 34165 ft | 495 kts | 293° |
| 2026-05-03 22:58 | 42.13402 | -135.00853 | 34170 ft | 495 kts | 293° |
| 2026-05-03 22:58 | 42.15173 | -135.09825 | 34181 ft | 495 kts | 293° |
| 2026-05-03 22:59 | 42.16934 | -135.18787 | 34188 ft | 494 kts | 293° |
| 2026-05-03 22:59 | 42.18685 | -135.27740 | 34185 ft | 494 kts | 292° |
| 2026-05-03 23:00 | 42.20420 | -135.36649 | 34181 ft | 493 kts | 292° |
| 2026-05-03 23:00 | 42.22154 | -135.45591 | 34185 ft | 493 kts | 292° |
| 2026-05-03 23:01 | 42.23883 | -135.54554 | 34187 ft | 493 kts | 292° |
| 2026-05-03 23:01 | 42.25604 | -135.63512 | 34191 ft | 492 kts | 292° |
| 2026-05-03 23:02 | 42.27315 | -135.72461 | 34192 ft | 492 kts | 292° |
| 2026-05-03 23:02 | 42.29021 | -135.81428 | 34195 ft | 492 kts | 291° |
| 2026-05-03 23:03 | 42.30715 | -135.90369 | 34196 ft | 491 kts | 291° |
| 2026-05-03 23:03 | 42.32402 | -135.99314 | 34199 ft | 491 kts | 291° |
| 2026-05-03 23:04 | 42.34083 | -136.08258 | 34205 ft | 491 kts | 291° |
| 2026-05-03 23:04 | 42.35749 | -136.17183 | 34199 ft | 491 kts | 291° |
| 2026-05-03 23:05 | 42.37413 | -136.26135 | 34218 ft | 491 kts | 291° |
| 2026-05-03 23:05 | 42.39072 | -136.35103 | 34213 ft | 491 kts | 290° |
| 2026-05-03 23:06 | 42.40724 | -136.44067 | 34210 ft | 491 kts | 290° |
| 2026-05-03 23:06 | 42.42369 | -136.53043 | 34217 ft | 491 kts | 290° |
| 2026-05-03 23:07 | 42.44004 | -136.62007 | 34215 ft | 490 kts | 290° |
| 2026-05-03 23:07 | 42.45635 | -136.70989 | 34218 ft | 490 kts | 290° |
| 2026-05-03 23:08 | 42.47246 | -136.79909 | 34220 ft | 490 kts | 289° |
| 2026-05-03 23:08 | 42.48862 | -136.88891 | 34220 ft | 490 kts | 289° |
| 2026-05-03 23:09 | 42.50468 | -136.97869 | 34225 ft | 490 kts | 289° |
| 2026-05-03 23:09 | 42.52068 | -137.06853 | 34232 ft | 490 kts | 289° |
| 2026-05-03 23:10 | 42.53663 | -137.15853 | 34230 ft | 490 kts | 289° |
| 2026-05-03 23:10 | 42.55248 | -137.24844 | 34229 ft | 490 kts | 288° |
| 2026-05-03 23:11 | 42.56841 | -137.33872 | 34236 ft | 495 kts | 286° |
| 2026-05-03 23:11 | 42.58432 | -137.42995 | 34233 ft | 497 kts | 286° |
| 2026-05-03 23:12 | 42.60013 | -137.52126 | 34240 ft | 496 kts | 286° |
| 2026-05-03 23:12 | 42.61579 | -137.61202 | 34243 ft | 496 kts | 285° |
| 2026-05-03 23:13 | 42.62891 | -137.68830 | 34245 ft | 495 kts | 285° |
| 2026-05-03 23:13 | 42.64453 | -137.77953 | 34241 ft | 495 kts | 285° |
| 2026-05-03 23:14 | 42.66003 | -137.87053 | 34244 ft | 494 kts | 285° |
| 2026-05-03 23:14 | 42.67546 | -137.96162 | 34249 ft | 494 kts | 285° |
| 2026-05-03 23:15 | 42.69080 | -138.05258 | 34248 ft | 493 kts | 284° |
| 2026-05-03 23:15 | 42.70607 | -138.14365 | 34248 ft | 493 kts | 284° |
| 2026-05-03 23:16 | 42.72117 | -138.23418 | 34252 ft | 493 kts | 284° |
| 2026-05-03 23:16 | 42.73629 | -138.32525 | 34255 ft | 493 kts | 284° |
| 2026-05-03 23:17 | 42.75131 | -138.41625 | 34254 ft | 493 kts | 284° |
| 2026-05-03 23:17 | 42.76629 | -138.50748 | 34254 ft | 493 kts | 284° |
| 2026-05-03 23:18 | 42.78119 | -138.59874 | 34259 ft | 493 kts | 283° |
| 2026-05-03 23:18 | 42.79604 | -138.69011 | 34259 ft | 493 kts | 283° |
| 2026-05-03 23:19 | 42.81079 | -138.78140 | 34261 ft | 493 kts | 283° |
| 2026-05-03 23:19 | 42.82546 | -138.87270 | 34262 ft | 494 kts | 283° |
| 2026-05-03 23:20 | 42.84006 | -138.96408 | 34259 ft | 494 kts | 283° |
| 2026-05-03 23:20 | 42.85461 | -139.05563 | 34258 ft | 494 kts | 283° |
| 2026-05-03 23:21 | 42.86909 | -139.14720 | 34261 ft | 494 kts | 283° |
| 2026-05-03 23:21 | 42.88351 | -139.23890 | 34264 ft | 494 kts | 283° |
| 2026-05-03 23:22 | 42.90500 | -139.37655 | 34260 ft | 494 kts | 282° |
| 2026-05-03 23:22 | 42.91914 | -139.46775 | 34264 ft | 494 kts | 282° |
| 2026-05-03 23:23 | 42.93331 | -139.55960 | 34269 ft | 494 kts | 282° |
| 2026-05-03 23:23 | 42.94738 | -139.65141 | 34270 ft | 494 kts | 282° |
| 2026-05-03 23:24 | 42.96139 | -139.74329 | 34272 ft | 494 kts | 282° |
| 2026-05-03 23:24 | 42.97532 | -139.83519 | 34270 ft | 494 kts | 282° |
| 2026-05-03 23:25 | 42.98914 | -139.92695 | 34271 ft | 493 kts | 282° |
| 2026-05-03 23:25 | 43.00513 | -140.01785 | 34269 ft | 492 kts | 288° |
| 2026-05-03 23:26 | 43.02657 | -140.10684 | 34266 ft | 492 kts | 289° |
| 2026-05-03 23:26 | 43.04884 | -140.19549 | 34267 ft | 492 kts | 289° |
| 2026-05-03 23:27 | 43.07107 | -140.28407 | 34267 ft | 492 kts | 289° |
| 2026-05-03 23:27 | 43.09311 | -140.37268 | 34268 ft | 492 kts | 289° |
| 2026-05-03 23:28 | 43.11504 | -140.46144 | 34271 ft | 492 kts | 288° |
| 2026-05-03 23:28 | 43.13676 | -140.54972 | 34270 ft | 492 kts | 288° |
| 2026-05-03 23:29 | 43.15855 | -140.63864 | 34269 ft | 492 kts | 288° |
| 2026-05-03 23:29 | 43.18029 | -140.72767 | 34272 ft | 492 kts | 288° |
| 2026-05-03 23:30 | 43.20194 | -140.81667 | 34271 ft | 492 kts | 288° |
| 2026-05-03 23:30 | 43.22353 | -140.90579 | 34267 ft | 492 kts | 288° |
| 2026-05-03 23:31 | 43.24490 | -140.99431 | 34270 ft | 492 kts | 287° |
| 2026-05-03 23:31 | 43.26634 | -141.08348 | 34272 ft | 492 kts | 287° |
| 2026-05-03 23:32 | 43.28771 | -141.17273 | 34275 ft | 492 kts | 287° |
| 2026-05-03 23:32 | 43.30904 | -141.26217 | 34277 ft | 492 kts | 287° |
| 2026-05-03 23:33 | 43.33032 | -141.35175 | 34276 ft | 493 kts | 287° |
| 2026-05-03 23:33 | 43.35142 | -141.44092 | 34275 ft | 493 kts | 286° |
| 2026-05-03 23:34 | 43.37262 | -141.53088 | 34276 ft | 494 kts | 286° |
| 2026-05-03 23:34 | 43.39375 | -141.62088 | 34271 ft | 495 kts | 286° |
| 2026-05-03 23:35 | 43.41480 | -141.71092 | 34271 ft | 495 kts | 285° |
| 2026-05-03 23:35 | 43.43587 | -141.80142 | 34268 ft | 496 kts | 285° |
| 2026-05-03 23:36 | 43.45689 | -141.89206 | 34264 ft | 497 kts | 285° |
| 2026-05-03 23:36 | 43.47791 | -141.98309 | 34267 ft | 498 kts | 285° |
| 2026-05-03 23:37 | 43.49884 | -142.07408 | 34267 ft | 499 kts | 285° |
| 2026-05-03 23:37 | 43.51975 | -142.16540 | 34262 ft | 499 kts | 284° |
| 2026-05-03 23:38 | 43.54042 | -142.25601 | 34263 ft | 499 kts | 284° |
| 2026-05-03 23:38 | 43.56119 | -142.34748 | 34263 ft | 499 kts | 284° |
| 2026-05-03 23:39 | 43.58186 | -142.43886 | 34259 ft | 499 kts | 284° |
| 2026-05-03 23:39 | 43.60248 | -142.53041 | 34260 ft | 499 kts | 283° |
| 2026-05-03 23:40 | 43.62302 | -142.62199 | 34257 ft | 499 kts | 283° |
| 2026-05-03 23:40 | 43.64346 | -142.71354 | 34255 ft | 499 kts | 283° |
| 2026-05-03 23:41 | 43.66383 | -142.80512 | 34256 ft | 498 kts | 283° |
| 2026-05-03 23:41 | 43.68411 | -142.89674 | 34252 ft | 498 kts | 283° |
| 2026-05-03 23:42 | 43.70431 | -142.98837 | 34251 ft | 498 kts | 282° |
| 2026-05-03 23:42 | 43.72432 | -143.07951 | 34249 ft | 498 kts | 282° |
| 2026-05-03 23:43 | 43.74434 | -143.17111 | 34252 ft | 498 kts | 282° |
| 2026-05-03 23:43 | 43.76428 | -143.26275 | 34246 ft | 498 kts | 282° |
| 2026-05-03 23:44 | 43.78417 | -143.35452 | 34245 ft | 497 kts | 282° |
| 2026-05-03 23:44 | 43.80400 | -143.44643 | 34241 ft | 497 kts | 281° |
| 2026-05-03 23:45 | 43.82376 | -143.53845 | 34244 ft | 498 kts | 281° |
| 2026-05-03 23:45 | 43.84344 | -143.63049 | 34237 ft | 498 kts | 281° |
| 2026-05-03 23:46 | 43.86303 | -143.72248 | 34238 ft | 498 kts | 281° |
| 2026-05-03 23:46 | 43.88257 | -143.81463 | 34241 ft | 498 kts | 281° |
| 2026-05-03 23:47 | 43.90200 | -143.90670 | 34223 ft | 498 kts | 281° |
| 2026-05-03 23:47 | 43.92138 | -143.99895 | 34224 ft | 498 kts | 280° |
| 2026-05-03 23:48 | 43.94056 | -144.09064 | 34228 ft | 497 kts | 280° |
| 2026-05-03 23:48 | 43.95980 | -144.18306 | 34228 ft | 497 kts | 280° |
| 2026-05-03 23:49 | 43.97894 | -144.27538 | 34222 ft | 497 kts | 280° |
| 2026-05-03 23:49 | 43.99797 | -144.36761 | 34217 ft | 497 kts | 279° |
| 2026-05-03 23:50 | 44.01372 | -144.44425 | 34219 ft | 496 kts | 279° |
| 2026-05-03 23:50 | 44.03270 | -144.53703 | 34214 ft | 496 kts | 279° |
| 2026-05-03 23:51 | 44.05151 | -144.62937 | 34214 ft | 495 kts | 279° |
| 2026-05-03 23:51 | 44.07020 | -144.72156 | 34215 ft | 495 kts | 279° |
| 2026-05-03 23:52 | 44.08868 | -144.81317 | 34209 ft | 495 kts | 279° |
| 2026-05-03 23:52 | 44.10722 | -144.90545 | 34206 ft | 495 kts | 279° |
| 2026-05-03 23:53 | 44.12570 | -144.99787 | 34191 ft | 495 kts | 278° |
| 2026-05-03 23:53 | 44.14412 | -145.09042 | 34195 ft | 496 kts | 278° |
| 2026-05-03 23:54 | 44.16244 | -145.18292 | 34195 ft | 496 kts | 278° |
| 2026-05-03 23:54 | 44.18073 | -145.27565 | 34194 ft | 496 kts | 278° |
| 2026-05-03 23:55 | 44.19895 | -145.36847 | 34189 ft | 496 kts | 278° |
| 2026-05-03 23:55 | 44.21709 | -145.46134 | 34184 ft | 496 kts | 277° |
| 2026-05-03 23:56 | 44.23507 | -145.55379 | 34176 ft | 496 kts | 277° |
| 2026-05-03 23:56 | 44.25306 | -145.64677 | 34180 ft | 495 kts | 277° |
| 2026-05-03 23:57 | 44.27094 | -145.73968 | 34175 ft | 495 kts | 277° |
| 2026-05-03 23:57 | 44.28872 | -145.83250 | 34171 ft | 495 kts | 276° |
| 2026-05-03 23:58 | 44.30643 | -145.92540 | 34161 ft | 495 kts | 276° |
| 2026-05-03 23:58 | 44.32409 | -146.01845 | 34154 ft | 495 kts | 276° |
| 2026-05-03 23:59 | 44.34164 | -146.11142 | 34152 ft | 495 kts | 276° |
| 2026-05-03 23:59 | 44.35913 | -146.20448 | 34149 ft | 495 kts | 275° |
| 2026-05-04 00:00 | 44.37655 | -146.29768 | 34141 ft | 496 kts | 275° |
| 2026-05-04 00:00 | 44.39392 | -146.39106 | 34134 ft | 496 kts | 275° |
| 2026-05-04 00:01 | 44.41122 | -146.48452 | 34124 ft | 496 kts | 275° |
| 2026-05-04 00:01 | 44.42845 | -146.57803 | 34125 ft | 497 kts | 275° |
| 2026-05-04 00:02 | 44.44556 | -146.67142 | 34115 ft | 497 kts | 274° |
| 2026-05-04 00:02 | 44.46269 | -146.76534 | 34114 ft | 498 kts | 274° |
| 2026-05-04 00:03 | 44.47976 | -146.85945 | 34100 ft | 499 kts | 274° |
| 2026-05-04 00:03 | 44.49681 | -146.95391 | 34093 ft | 499 kts | 274° |
| 2026-05-04 00:04 | 44.51380 | -147.04849 | 34085 ft | 500 kts | 273° |
| 2026-05-04 00:04 | 44.53068 | -147.14303 | 34087 ft | 501 kts | 273° |
| 2026-05-04 00:05 | 44.54757 | -147.23806 | 34079 ft | 501 kts | 273° |
| 2026-05-04 00:05 | 44.56427 | -147.33251 | 34068 ft | 502 kts | 273° |
| 2026-05-04 00:06 | 44.58103 | -147.42783 | 34062 ft | 503 kts | 272° |
| 2026-05-04 00:06 | 44.59771 | -147.52324 | 34053 ft | 504 kts | 272° |
| 2026-05-04 00:07 | 44.61435 | -147.61889 | 34045 ft | 504 kts | 272° |
| 2026-05-04 00:07 | 44.63083 | -147.71409 | 34039 ft | 505 kts | 272° |
| 2026-05-04 00:08 | 44.64737 | -147.81017 | 34036 ft | 506 kts | 272° |
| 2026-05-04 00:08 | 44.66384 | -147.90637 | 34027 ft | 507 kts | 272° |
| 2026-05-04 00:09 | 44.68028 | -148.00298 | 34018 ft | 508 kts | 271° |
| 2026-05-04 00:09 | 44.69670 | -148.09998 | 34015 ft | 510 kts | 271° |
| 2026-05-04 00:10 | 44.71306 | -148.19716 | 34016 ft | 511 kts | 271° |
| 2026-05-04 00:10 | 44.72936 | -148.29455 | 34008 ft | 512 kts | 271° |
| 2026-05-04 00:11 | 44.74561 | -148.39212 | 33997 ft | 513 kts | 271° |
| 2026-05-04 00:11 | 44.76171 | -148.48941 | 33992 ft | 514 kts | 271° |
| 2026-05-04 00:12 | 44.77789 | -148.58768 | 33977 ft | 515 kts | 271° |
| 2026-05-04 00:12 | 44.79398 | -148.68603 | 33972 ft | 516 kts | 271° |
| 2026-05-04 00:13 | 44.81004 | -148.78472 | 33962 ft | 517 kts | 270° |
| 2026-05-04 00:13 | 44.82600 | -148.88346 | 33951 ft | 518 kts | 270° |
| 2026-05-04 00:14 | 44.84198 | -148.98279 | 33949 ft | 519 kts | 270° |
| 2026-05-04 00:14 | 44.85789 | -149.08237 | 33937 ft | 520 kts | 270° |
| 2026-05-04 00:15 | 44.87373 | -149.18202 | 33925 ft | 521 kts | 270° |
| 2026-05-04 00:15 | 44.88953 | -149.28207 | 33919 ft | 522 kts | 270° |
| 2026-05-04 00:16 | 44.90517 | -149.38169 | 33901 ft | 523 kts | 270° |
| 2026-05-04 00:16 | 44.92080 | -149.48192 | 33906 ft | 524 kts | 270° |
| 2026-05-04 00:17 | 44.93641 | -149.58253 | 33891 ft | 524 kts | 270° |
| 2026-05-04 00:17 | 44.95191 | -149.68304 | 33887 ft | 524 kts | 270° |
| 2026-05-04 00:18 | 44.96734 | -149.78381 | 33877 ft | 525 kts | 270° |
| 2026-05-04 00:18 | 44.98270 | -149.88477 | 33869 ft | 525 kts | 270° |
| 2026-05-04 00:19 | 44.99936 | -149.98549 | 33885 ft | 535 kts | 277° |
| 2026-05-04 00:19 | 45.01336 | -150.03439 | 34222 ft | 543 kts | 285° |
| 2026-05-04 00:19 | 45.02965 | -150.08247 | 34773 ft | 538 kts | 286° |
| 2026-05-04 00:20 | 45.04633 | -150.12945 | 35322 ft | 533 kts | 287° |
| 2026-05-04 00:20 | 45.06322 | -150.17608 | 35720 ft | 530 kts | 287° |
| 2026-05-04 00:20 | 45.08010 | -150.22256 | 35833 ft | 533 kts | 288° |
| 2026-05-04 00:20 | 45.09707 | -150.26952 | 35830 ft | 537 kts | 288° |
| 2026-05-04 00:21 | 45.13094 | -150.36362 | 35810 ft | 536 kts | 288° |
| 2026-05-04 00:21 | 45.16464 | -150.45789 | 35812 ft | 536 kts | 288° |
| 2026-05-04 00:22 | 45.19800 | -150.55172 | 35805 ft | 536 kts | 288° |
| 2026-05-04 00:22 | 45.23150 | -150.64628 | 35798 ft | 536 kts | 288° |
| 2026-05-04 00:23 | 45.26495 | -150.74104 | 35789 ft | 536 kts | 288° |
| 2026-05-04 00:23 | 45.29827 | -150.83573 | 35778 ft | 536 kts | 288° |
| 2026-05-04 00:24 | 45.33150 | -150.93053 | 35766 ft | 535 kts | 288° |
| 2026-05-04 00:24 | 45.36462 | -151.02531 | 35754 ft | 535 kts | 288° |
| 2026-05-04 00:25 | 45.39762 | -151.12009 | 35748 ft | 535 kts | 288° |
| 2026-05-04 00:25 | 45.43047 | -151.21481 | 35739 ft | 535 kts | 288° |
| 2026-05-04 00:26 | 45.46335 | -151.30996 | 35729 ft | 535 kts | 289° |
| 2026-05-04 00:26 | 45.49616 | -151.40523 | 35715 ft | 535 kts | 289° |
| 2026-05-04 00:27 | 45.52358 | -151.48510 | 35707 ft | 535 kts | 289° |
| 2026-05-04 00:27 | 45.55621 | -151.58045 | 35698 ft | 535 kts | 289° |
| 2026-05-04 00:28 | 45.58861 | -151.67547 | 35688 ft | 534 kts | 289° |
| 2026-05-04 00:28 | 45.62107 | -151.77099 | 35677 ft | 534 kts | 289° |
| 2026-05-04 00:29 | 45.65342 | -151.86658 | 35667 ft | 534 kts | 289° |
| 2026-05-04 00:29 | 45.68576 | -151.96245 | 35658 ft | 534 kts | 289° |
| 2026-05-04 00:30 | 45.71798 | -152.05832 | 35653 ft | 534 kts | 289° |
| 2026-05-04 00:30 | 45.75009 | -152.15422 | 35643 ft | 534 kts | 289° |
| 2026-05-04 00:31 | 45.78206 | -152.25008 | 35632 ft | 534 kts | 289° |
| 2026-05-04 00:31 | 45.81406 | -152.34636 | 35627 ft | 534 kts | 289° |
| 2026-05-04 00:32 | 45.84586 | -152.44237 | 35612 ft | 533 kts | 289° |
| 2026-05-04 00:32 | 45.87743 | -152.53808 | 35610 ft | 533 kts | 290° |
| 2026-05-04 00:33 | 45.92504 | -152.68304 | 35593 ft | 533 kts | 290° |
| 2026-05-04 00:34 | 45.95653 | -152.77937 | 35587 ft | 532 kts | 290° |
| 2026-05-04 00:34 | 45.98793 | -152.87577 | 35578 ft | 532 kts | 290° |
| 2026-05-04 00:35 | 46.01908 | -152.97176 | 35572 ft | 532 kts | 290° |
| 2026-05-04 00:35 | 46.05031 | -153.06838 | 35566 ft | 532 kts | 290° |
| 2026-05-04 00:36 | 46.08145 | -153.16505 | 35557 ft | 532 kts | 290° |
| 2026-05-04 00:36 | 46.11255 | -153.26198 | 35549 ft | 532 kts | 290° |
| 2026-05-04 00:37 | 46.14351 | -153.35885 | 35545 ft | 531 kts | 290° |
| 2026-05-04 00:37 | 46.17436 | -153.45573 | 35538 ft | 531 kts | 290° |
| 2026-05-04 00:38 | 46.20516 | -153.55280 | 35544 ft | 531 kts | 290° |
| 2026-05-04 00:38 | 46.23592 | -153.65011 | 35529 ft | 531 kts | 290° |
| 2026-05-04 00:39 | 46.26636 | -153.74679 | 35533 ft | 531 kts | 290° |
| 2026-05-04 00:39 | 46.29694 | -153.84430 | 35529 ft | 531 kts | 290° |
| 2026-05-04 00:40 | 46.32737 | -153.94170 | 35531 ft | 531 kts | 290° |
| 2026-05-04 00:40 | 46.35760 | -154.03879 | 35532 ft | 531 kts | 290° |
| 2026-05-04 00:41 | 46.38785 | -154.13636 | 35530 ft | 531 kts | 290° |
| 2026-05-04 00:41 | 46.41797 | -154.23388 | 35528 ft | 530 kts | 290° |
| 2026-05-04 00:42 | 46.44806 | -154.33166 | 35525 ft | 530 kts | 290° |
| 2026-05-04 00:42 | 46.47803 | -154.42944 | 35528 ft | 529 kts | 290° |
| 2026-05-04 00:43 | 46.50783 | -154.52705 | 35532 ft | 529 kts | 290° |
| 2026-05-04 00:43 | 46.53755 | -154.62476 | 35529 ft | 529 kts | 290° |
| 2026-05-04 00:44 | 46.56719 | -154.72262 | 35529 ft | 528 kts | 290° |
| 2026-05-04 00:44 | 46.59645 | -154.81957 | 35532 ft | 528 kts | 290° |
| 2026-05-04 00:45 | 46.62612 | -154.91828 | 35536 ft | 527 kts | 290° |
| 2026-05-04 00:45 | 46.65548 | -155.01634 | 35547 ft | 527 kts | 290° |
| 2026-05-04 00:46 | 46.68452 | -155.11368 | 35542 ft | 527 kts | 290° |
| 2026-05-04 00:46 | 46.71376 | -155.21213 | 35541 ft | 526 kts | 290° |
| 2026-05-04 00:47 | 46.74276 | -155.31016 | 35542 ft | 526 kts | 290° |
| 2026-05-04 00:47 | 46.77193 | -155.40914 | 35546 ft | 526 kts | 290° |
| 2026-05-04 00:48 | 46.80060 | -155.50680 | 35550 ft | 525 kts | 290° |
| 2026-05-04 00:48 | 46.82893 | -155.60372 | 35556 ft | 525 kts | 290° |
| 2026-05-04 00:49 | 46.85778 | -155.70279 | 35559 ft | 525 kts | 290° |
| 2026-05-04 00:49 | 46.88625 | -155.80094 | 35563 ft | 524 kts | 290° |
| 2026-05-04 00:50 | 46.91478 | -155.89969 | 35567 ft | 524 kts | 290° |
| 2026-05-04 00:50 | 46.94301 | -155.99781 | 35574 ft | 523 kts | 290° |
| 2026-05-04 00:51 | 46.97111 | -156.09586 | 35579 ft | 522 kts | 290° |
| 2026-05-04 00:51 | 46.99912 | -156.19402 | 35584 ft | 521 kts | 290° |
| 2026-05-04 00:52 | 47.02701 | -156.29214 | 35592 ft | 521 kts | 290° |
| 2026-05-04 00:52 | 47.05478 | -156.39025 | 35602 ft | 520 kts | 289° |
| 2026-05-04 00:53 | 47.08245 | -156.48835 | 35613 ft | 521 kts | 289° |
| 2026-05-04 00:53 | 47.11010 | -156.58687 | 35630 ft | 522 kts | 289° |
| 2026-05-04 00:54 | 47.13773 | -156.68567 | 35639 ft | 522 kts | 289° |
| 2026-05-04 00:54 | 47.16512 | -156.78397 | 35654 ft | 522 kts | 289° |
| 2026-05-04 00:55 | 47.19253 | -156.88266 | 35661 ft | 522 kts | 289° |
| 2026-05-04 00:55 | 47.21992 | -156.98179 | 35674 ft | 522 kts | 289° |
| 2026-05-04 00:56 | 47.24709 | -157.08069 | 35681 ft | 521 kts | 289° |
| 2026-05-04 00:56 | 47.27421 | -157.17966 | 35696 ft | 520 kts | 289° |
| 2026-05-04 00:57 | 47.30118 | -157.27861 | 35700 ft | 520 kts | 289° |
| 2026-05-04 00:57 | 47.32805 | -157.37758 | 35706 ft | 519 kts | 289° |
| 2026-05-04 00:58 | 47.35464 | -157.47585 | 35717 ft | 518 kts | 289° |
| 2026-05-04 00:58 | 47.38123 | -157.57453 | 35725 ft | 517 kts | 289° |
| 2026-05-04 00:59 | 47.40765 | -157.67306 | 35732 ft | 515 kts | 289° |
| 2026-05-04 00:59 | 47.42968 | -157.75552 | 35739 ft | 515 kts | 289° |
| 2026-05-04 01:00 | 47.45568 | -157.85319 | 35745 ft | 514 kts | 288° |
| 2026-05-04 01:00 | 47.48172 | -157.95142 | 35755 ft | 512 kts | 289° |
| 2026-05-04 01:01 | 47.50761 | -158.04946 | 35755 ft | 511 kts | 288° |
| 2026-05-04 01:01 | 47.53333 | -158.14736 | 35764 ft | 509 kts | 288° |
| 2026-05-04 01:02 | 47.55889 | -158.24504 | 35772 ft | 509 kts | 288° |
| 2026-05-04 01:02 | 47.58440 | -158.34281 | 35778 ft | 509 kts | 288° |
| 2026-05-04 01:03 | 47.60986 | -158.44079 | 35782 ft | 509 kts | 288° |
| 2026-05-04 01:03 | 47.63515 | -158.53871 | 35793 ft | 508 kts | 289° |
| 2026-05-04 01:04 | 47.66037 | -158.63675 | 35794 ft | 508 kts | 288° |
| 2026-05-04 01:04 | 47.68553 | -158.73496 | 35803 ft | 509 kts | 288° |
| 2026-05-04 01:05 | 47.71050 | -158.83281 | 35806 ft | 510 kts | 289° |
| 2026-05-04 01:05 | 47.73564 | -158.93160 | 35812 ft | 510 kts | 289° |
| 2026-05-04 01:06 | 47.76063 | -159.03048 | 35819 ft | 511 kts | 288° |
| 2026-05-04 01:06 | 47.78550 | -159.12927 | 35822 ft | 511 kts | 288° |
| 2026-05-04 01:07 | 47.81036 | -159.22842 | 35822 ft | 510 kts | 288° |
| 2026-05-04 01:07 | 47.83509 | -159.32749 | 35832 ft | 510 kts | 288° |
| 2026-05-04 01:08 | 47.85958 | -159.42602 | 35837 ft | 510 kts | 288° |
| 2026-05-04 01:08 | 47.88413 | -159.52528 | 35839 ft | 509 kts | 288° |
| 2026-05-04 01:09 | 47.90855 | -159.62432 | 35842 ft | 508 kts | 288° |
| 2026-05-04 01:09 | 47.93279 | -159.72309 | 35850 ft | 507 kts | 288° |
| 2026-05-04 01:10 | 47.95692 | -159.82185 | 35850 ft | 506 kts | 287° |
| 2026-05-04 01:10 | 47.98072 | -159.91983 | 35851 ft | 505 kts | 287° |
| 2026-05-04 01:11 | 48.00476 | -160.01908 | 35861 ft | 504 kts | 288° |
| 2026-05-04 01:11 | 48.02925 | -160.11719 | 35859 ft | 504 kts | 288° |
| 2026-05-04 01:12 | 48.05405 | -160.21507 | 35865 ft | 503 kts | 288° |
| 2026-05-04 01:12 | 48.07864 | -160.31282 | 35873 ft | 502 kts | 288° |
| 2026-05-04 01:13 | 48.10283 | -160.40996 | 35871 ft | 501 kts | 288° |
| 2026-05-04 01:13 | 48.12700 | -160.50754 | 35875 ft | 499 kts | 288° |
| 2026-05-04 01:14 | 48.15100 | -160.60489 | 35882 ft | 498 kts | 288° |
| 2026-05-04 01:14 | 48.17487 | -160.70225 | 35884 ft | 496 kts | 288° |
| 2026-05-04 01:15 | 48.19860 | -160.79943 | 35889 ft | 495 kts | 288° |
| 2026-05-04 01:15 | 48.22222 | -160.89629 | 35890 ft | 494 kts | 288° |
| 2026-05-04 01:16 | 48.24570 | -160.99314 | 35895 ft | 493 kts | 288° |
| 2026-05-04 01:16 | 48.26884 | -161.08932 | 35898 ft | 492 kts | 288° |
| 2026-05-04 01:17 | 48.29204 | -161.18600 | 35898 ft | 491 kts | 288° |
| 2026-05-04 01:17 | 48.31507 | -161.28237 | 35905 ft | 490 kts | 288° |
| 2026-05-04 01:18 | 48.33798 | -161.37854 | 35906 ft | 488 kts | 288° |
| 2026-05-04 01:18 | 48.36077 | -161.47460 | 35909 ft | 486 kts | 288° |
| 2026-05-04 01:19 | 48.38338 | -161.57035 | 35911 ft | 485 kts | 288° |
| 2026-05-04 01:19 | 48.40582 | -161.66591 | 35915 ft | 483 kts | 288° |
| 2026-05-04 01:20 | 48.42813 | -161.76138 | 35917 ft | 482 kts | 288° |
| 2026-05-04 01:20 | 48.45030 | -161.85655 | 35921 ft | 481 kts | 288° |
| 2026-05-04 01:21 | 48.47234 | -161.95165 | 35921 ft | 480 kts | 288° |
| 2026-05-04 01:21 | 48.49427 | -162.04671 | 35925 ft | 480 kts | 288° |
| 2026-05-04 01:22 | 48.51612 | -162.14180 | 35928 ft | 479 kts | 288° |
| 2026-05-04 01:22 | 48.53784 | -162.23677 | 35933 ft | 479 kts | 288° |
| 2026-05-04 01:23 | 48.55950 | -162.33189 | 35932 ft | 478 kts | 288° |
| 2026-05-04 01:23 | 48.58110 | -162.42712 | 35940 ft | 478 kts | 288° |
| 2026-05-04 01:24 | 48.60244 | -162.52163 | 35942 ft | 478 kts | 288° |
| 2026-05-04 01:24 | 48.62379 | -162.61663 | 35946 ft | 477 kts | 289° |
| 2026-05-04 01:25 | 48.64508 | -162.71181 | 35947 ft | 477 kts | 289° |
| 2026-05-04 01:25 | 48.66626 | -162.80694 | 35948 ft | 476 kts | 289° |
| 2026-05-04 01:26 | 48.68731 | -162.90191 | 35950 ft | 476 kts | 289° |
| 2026-05-04 01:26 | 48.70827 | -162.99688 | 35954 ft | 476 kts | 288° |
| 2026-05-04 01:27 | 48.72916 | -163.09196 | 35955 ft | 475 kts | 288° |
| 2026-05-04 01:27 | 48.74995 | -163.18707 | 35959 ft | 475 kts | 288° |
| 2026-05-04 01:28 | 48.77064 | -163.28214 | 35960 ft | 474 kts | 288° |
| 2026-05-04 01:28 | 48.79107 | -163.37642 | 35964 ft | 473 kts | 288° |
| 2026-05-04 01:29 | 48.81155 | -163.47142 | 35964 ft | 472 kts | 288° |
| 2026-05-04 01:29 | 48.83194 | -163.56639 | 35970 ft | 472 kts | 289° |
| 2026-05-04 01:30 | 48.85219 | -163.66115 | 35973 ft | 471 kts | 289° |
| 2026-05-04 01:30 | 48.87224 | -163.75545 | 35977 ft | 471 kts | 289° |
| 2026-05-04 01:31 | 48.89227 | -163.85006 | 35978 ft | 470 kts | 289° |
| 2026-05-04 01:31 | 48.91219 | -163.94462 | 35980 ft | 469 kts | 289° |
| 2026-05-04 01:32 | 48.93199 | -164.03902 | 35984 ft | 468 kts | 289° |
| 2026-05-04 01:32 | 48.95167 | -164.13333 | 35990 ft | 467 kts | 289° |
| 2026-05-04 01:33 | 48.97124 | -164.22749 | 35989 ft | 466 kts | 289° |
| 2026-05-04 01:33 | 48.99067 | -164.32147 | 35993 ft | 465 kts | 289° |
| 2026-05-04 01:34 | 49.01000 | -164.41539 | 35993 ft | 464 kts | 289° |
| 2026-05-04 01:34 | 49.02921 | -164.50919 | 35997 ft | 463 kts | 289° |
| 2026-05-04 01:35 | 49.04823 | -164.60245 | 36000 ft | 463 kts | 289° |
| 2026-05-04 01:35 | 49.06722 | -164.69605 | 36003 ft | 462 kts | 289° |
| 2026-05-04 01:36 | 49.08613 | -164.78966 | 36007 ft | 461 kts | 289° |
| 2026-05-04 01:36 | 49.10177 | -164.86746 | 36006 ft | 461 kts | 289° |
| 2026-05-04 01:37 | 49.12047 | -164.96088 | 36011 ft | 460 kts | 289° |
| 2026-05-04 01:37 | 49.13910 | -165.05435 | 36008 ft | 459 kts | 289° |
| 2026-05-04 01:38 | 49.15760 | -165.14768 | 36011 ft | 458 kts | 289° |
| 2026-05-04 01:38 | 49.17604 | -165.24113 | 36019 ft | 458 kts | 289° |
| 2026-05-04 01:39 | 49.19434 | -165.33431 | 36012 ft | 458 kts | 289° |
| 2026-05-04 01:39 | 49.21246 | -165.42701 | 36016 ft | 457 kts | 288° |
| 2026-05-04 01:40 | 49.23060 | -165.52025 | 36022 ft | 457 kts | 288° |
| 2026-05-04 01:40 | 49.24863 | -165.61341 | 36035 ft | 457 kts | 288° |
| 2026-05-04 01:41 | 49.26662 | -165.70681 | 36034 ft | 456 kts | 288° |
| 2026-05-04 01:41 | 49.28453 | -165.80029 | 36024 ft | 456 kts | 288° |
| 2026-05-04 01:42 | 49.30232 | -165.89359 | 36031 ft | 456 kts | 288° |
| 2026-05-04 01:42 | 49.31994 | -165.98641 | 36031 ft | 456 kts | 288° |
| 2026-05-04 01:43 | 49.33756 | -166.07974 | 36032 ft | 456 kts | 288° |
| 2026-05-04 01:43 | 49.35515 | -166.17334 | 36036 ft | 456 kts | 288° |
| 2026-05-04 01:44 | 49.37262 | -166.26677 | 36038 ft | 456 kts | 288° |
| 2026-05-04 01:44 | 49.39003 | -166.36034 | 36042 ft | 456 kts | 288° |
| 2026-05-04 01:45 | 49.40735 | -166.45394 | 36041 ft | 455 kts | 288° |
| 2026-05-04 01:45 | 49.43309 | -166.59386 | 36043 ft | 455 kts | 288° |
| 2026-05-04 01:46 | 49.45024 | -166.68772 | 36048 ft | 455 kts | 287° |
| 2026-05-04 01:46 | 49.46728 | -166.78143 | 36050 ft | 455 kts | 287° |
| 2026-05-04 01:47 | 49.48424 | -166.87517 | 36050 ft | 455 kts | 287° |
| 2026-05-04 01:47 | 49.50112 | -166.96898 | 36051 ft | 455 kts | 287° |
| 2026-05-04 01:48 | 49.51796 | -167.06307 | 36056 ft | 455 kts | 287° |
| 2026-05-04 01:48 | 49.53469 | -167.15702 | 36056 ft | 455 kts | 287° |
| 2026-05-04 01:49 | 49.55133 | -167.25098 | 36054 ft | 455 kts | 287° |
| 2026-05-04 01:49 | 49.56781 | -167.34449 | 36058 ft | 455 kts | 287° |
| 2026-05-04 01:50 | 49.58433 | -167.43873 | 36056 ft | 455 kts | 287° |
| 2026-05-04 01:50 | 49.60077 | -167.53302 | 36058 ft | 455 kts | 287° |
| 2026-05-04 01:51 | 49.61713 | -167.62737 | 36063 ft | 455 kts | 287° |
| 2026-05-04 01:51 | 49.63340 | -167.72172 | 36066 ft | 455 kts | 286° |
| 2026-05-04 01:52 | 49.64962 | -167.81626 | 36069 ft | 455 kts | 286° |
| 2026-05-04 01:52 | 49.66573 | -167.91075 | 36070 ft | 455 kts | 286° |
| 2026-05-04 01:53 | 49.68170 | -168.00482 | 36069 ft | 455 kts | 286° |
| 2026-05-04 01:53 | 49.69770 | -168.09962 | 36070 ft | 455 kts | 286° |
| 2026-05-04 01:54 | 49.71362 | -168.19446 | 36071 ft | 456 kts | 286° |
| 2026-05-04 01:54 | 49.72944 | -168.28924 | 36074 ft | 455 kts | 286° |
| 2026-05-04 01:55 | 49.74519 | -168.38416 | 36080 ft | 456 kts | 285° |
| 2026-05-04 01:55 | 49.76088 | -168.47913 | 36082 ft | 456 kts | 285° |
| 2026-05-04 01:56 | 49.77639 | -168.57357 | 36083 ft | 456 kts | 285° |
| 2026-05-04 01:56 | 49.79195 | -168.66888 | 36078 ft | 456 kts | 285° |
| 2026-05-04 01:57 | 49.80741 | -168.76415 | 36085 ft | 456 kts | 285° |
| 2026-05-04 01:57 | 49.82281 | -168.85954 | 36086 ft | 456 kts | 285° |
| 2026-05-04 01:58 | 49.83803 | -168.95437 | 36087 ft | 456 kts | 285° |
| 2026-05-04 01:58 | 49.85326 | -169.04981 | 36088 ft | 456 kts | 285° |
| 2026-05-04 01:59 | 49.86839 | -169.14519 | 36090 ft | 456 kts | 285° |
| 2026-05-04 01:59 | 49.88346 | -169.24076 | 36088 ft | 456 kts | 284° |
| 2026-05-04 02:00 | 49.89845 | -169.33635 | 36087 ft | 456 kts | 284° |
| 2026-05-04 02:00 | 49.91338 | -169.43215 | 36091 ft | 456 kts | 284° |
| 2026-05-04 02:01 | 49.92824 | -169.52804 | 36089 ft | 456 kts | 284° |
| 2026-05-04 02:01 | 49.94299 | -169.62377 | 36096 ft | 456 kts | 284° |
| 2026-05-04 02:02 | 49.95771 | -169.71988 | 36095 ft | 457 kts | 284° |
| 2026-05-04 02:02 | 49.97224 | -169.81538 | 36094 ft | 457 kts | 284° |
| 2026-05-04 02:03 | 49.98677 | -169.91140 | 36096 ft | 457 kts | 284° |
| 2026-05-04 02:03 | 49.99712 | -170.00903 | 36094 ft | 458 kts | 273° |
| 2026-05-04 02:04 | 49.99451 | -170.10820 | 36099 ft | 460 kts | 267° |
| 2026-05-04 02:04 | 49.98891 | -170.20731 | 36100 ft | 461 kts | 266° |
| 2026-05-04 02:05 | 49.98283 | -170.30653 | 36099 ft | 461 kts | 266° |
| 2026-05-04 02:05 | 49.97686 | -170.40578 | 36100 ft | 461 kts | 266° |
| 2026-05-04 02:06 | 49.97098 | -170.50446 | 36099 ft | 462 kts | 266° |
| 2026-05-04 02:06 | 49.96502 | -170.60365 | 36100 ft | 462 kts | 265° |
| 2026-05-04 02:07 | 49.95896 | -170.70295 | 36099 ft | 462 kts | 265° |
| 2026-05-04 02:07 | 49.95280 | -170.80249 | 36096 ft | 463 kts | 265° |
| 2026-05-04 02:08 | 49.94653 | -170.90210 | 36101 ft | 463 kts | 265° |
| 2026-05-04 02:08 | 49.94018 | -171.00183 | 36105 ft | 464 kts | 265° |
| 2026-05-04 02:09 | 49.93374 | -171.10154 | 36101 ft | 464 kts | 265° |
| 2026-05-04 02:09 | 49.92721 | -171.20138 | 36105 ft | 465 kts | 264° |
| 2026-05-04 02:10 | 49.92063 | -171.30053 | 36103 ft | 465 kts | 264° |
| 2026-05-04 02:10 | 49.91392 | -171.40031 | 36102 ft | 465 kts | 264° |
| 2026-05-04 02:11 | 49.90712 | -171.50024 | 36101 ft | 466 kts | 264° |
| 2026-05-04 02:11 | 49.90022 | -171.60020 | 36099 ft | 466 kts | 264° |
| 2026-05-04 02:12 | 49.89323 | -171.70029 | 36104 ft | 466 kts | 264° |
| 2026-05-04 02:12 | 49.88616 | -171.80029 | 36101 ft | 466 kts | 264° |
| 2026-05-04 02:13 | 49.87900 | -171.90029 | 36100 ft | 467 kts | 263° |
| 2026-05-04 02:13 | 49.87180 | -171.99965 | 36099 ft | 467 kts | 263° |
| 2026-05-04 02:14 | 49.86446 | -172.09966 | 36102 ft | 467 kts | 263° |
| 2026-05-04 02:14 | 49.85702 | -172.19991 | 36102 ft | 467 kts | 263° |
| 2026-05-04 02:15 | 49.84950 | -172.30001 | 36101 ft | 467 kts | 263° |
| 2026-05-04 02:15 | 49.84190 | -172.40003 | 36095 ft | 467 kts | 263° |
| 2026-05-04 02:16 | 49.83426 | -172.49928 | 36095 ft | 467 kts | 263° |
| 2026-05-04 02:16 | 49.82650 | -172.59911 | 36090 ft | 467 kts | 263° |
| 2026-05-04 02:17 | 49.81864 | -172.69894 | 36094 ft | 467 kts | 263° |
| 2026-05-04 02:17 | 49.81204 | -172.78199 | 36094 ft | 467 kts | 263° |
| 2026-05-04 02:18 | 49.80398 | -172.88238 | 36090 ft | 467 kts | 262° |
| 2026-05-04 02:18 | 49.79593 | -172.98158 | 36086 ft | 467 kts | 262° |
| 2026-05-04 02:19 | 49.78774 | -173.08129 | 36087 ft | 466 kts | 262° |
| 2026-05-04 02:19 | 49.77949 | -173.18075 | 36084 ft | 466 kts | 262° |
| 2026-05-04 02:20 | 49.77110 | -173.28091 | 36079 ft | 466 kts | 262° |
| 2026-05-04 02:20 | 49.76269 | -173.38014 | 36077 ft | 465 kts | 262° |
| 2026-05-04 02:21 | 49.75419 | -173.47940 | 36077 ft | 465 kts | 262° |
| 2026-05-04 02:21 | 49.74561 | -173.57857 | 36073 ft | 465 kts | 262° |
| 2026-05-04 02:22 | 49.73695 | -173.67775 | 36068 ft | 465 kts | 262° |
| 2026-05-04 02:22 | 49.72820 | -173.77684 | 36060 ft | 465 kts | 262° |
| 2026-05-04 02:23 | 49.71937 | -173.87596 | 36060 ft | 465 kts | 262° |
| 2026-05-04 02:23 | 49.71051 | -173.97433 | 36065 ft | 465 kts | 262° |
| 2026-05-04 02:24 | 49.70150 | -174.07347 | 36055 ft | 465 kts | 261° |
| 2026-05-04 02:24 | 49.69241 | -174.17252 | 36053 ft | 466 kts | 261° |
| 2026-05-04 02:25 | 49.68323 | -174.27156 | 36054 ft | 466 kts | 261° |
| 2026-05-04 02:25 | 49.67395 | -174.37071 | 36050 ft | 466 kts | 261° |
| 2026-05-04 02:26 | 49.66457 | -174.47003 | 36044 ft | 467 kts | 261° |
| 2026-05-04 02:26 | 49.65517 | -174.56864 | 36045 ft | 467 kts | 261° |
| 2026-05-04 02:27 | 49.64563 | -174.66776 | 36037 ft | 467 kts | 260° |
| 2026-05-04 02:27 | 49.63600 | -174.76697 | 36034 ft | 467 kts | 260° |
| 2026-05-04 02:28 | 49.62626 | -174.86631 | 36031 ft | 468 kts | 260° |
| 2026-05-04 02:28 | 49.61646 | -174.96541 | 36024 ft | 468 kts | 260° |
| 2026-05-04 02:29 | 49.60657 | -175.06450 | 36021 ft | 468 kts | 259° |
| 2026-05-04 02:29 | 49.59657 | -175.16377 | 36015 ft | 468 kts | 259° |
| 2026-05-04 02:30 | 49.58651 | -175.26282 | 36013 ft | 468 kts | 259° |
| 2026-05-04 02:30 | 49.57635 | -175.36194 | 36008 ft | 468 kts | 259° |
| 2026-05-04 02:31 | 49.56611 | -175.46097 | 36006 ft | 468 kts | 259° |
| 2026-05-04 02:31 | 49.55579 | -175.56001 | 36002 ft | 468 kts | 258° |
| 2026-05-04 02:32 | 49.54538 | -175.65892 | 35994 ft | 468 kts | 258° |
| 2026-05-04 02:32 | 49.53494 | -175.75738 | 35990 ft | 468 kts | 258° |
| 2026-05-04 02:33 | 49.52435 | -175.85636 | 35984 ft | 469 kts | 258° |
| 2026-05-04 02:33 | 49.51366 | -175.95537 | 35980 ft | 469 kts | 258° |
| 2026-05-04 02:34 | 49.50287 | -176.05455 | 35972 ft | 469 kts | 258° |
| 2026-05-04 02:34 | 49.49198 | -176.15374 | 35968 ft | 470 kts | 257° |
| 2026-05-04 02:35 | 49.48101 | -176.25288 | 35961 ft | 470 kts | 257° |
| 2026-05-04 02:35 | 49.46995 | -176.35208 | 35955 ft | 471 kts | 257° |
| 2026-05-04 02:36 | 49.45880 | -176.45127 | 35948 ft | 471 kts | 257° |
| 2026-05-04 02:36 | 49.44757 | -176.55044 | 35943 ft | 471 kts | 257° |
| 2026-05-04 02:37 | 49.43623 | -176.64971 | 35939 ft | 471 kts | 257° |
| 2026-05-04 02:37 | 49.42488 | -176.74833 | 35929 ft | 472 kts | 257° |
| 2026-05-04 02:38 | 49.41337 | -176.84754 | 35929 ft | 472 kts | 257° |
| 2026-05-04 02:38 | 49.40174 | -176.94697 | 35916 ft | 472 kts | 256° |
| 2026-05-04 02:39 | 49.39004 | -177.04627 | 35902 ft | 472 kts | 256° |
| 2026-05-04 02:39 | 49.37823 | -177.14573 | 35901 ft | 473 kts | 256° |
| 2026-05-04 02:40 | 49.36634 | -177.24507 | 35894 ft | 473 kts | 256° |
| 2026-05-04 02:40 | 49.35442 | -177.34393 | 35886 ft | 474 kts | 256° |
| 2026-05-04 02:41 | 49.34232 | -177.44355 | 35885 ft | 474 kts | 256° |
| 2026-05-04 02:41 | 49.33014 | -177.54307 | 35872 ft | 475 kts | 256° |
| 2026-05-04 02:42 | 49.31785 | -177.64263 | 35868 ft | 475 kts | 256° |
| 2026-05-04 02:42 | 49.30547 | -177.74219 | 35856 ft | 476 kts | 255° |
| 2026-05-04 02:43 | 49.29300 | -177.84174 | 35847 ft | 476 kts | 255° |
| 2026-05-04 02:43 | 49.28043 | -177.94146 | 35837 ft | 476 kts | 255° |
| 2026-05-04 02:44 | 49.26775 | -178.04123 | 35835 ft | 477 kts | 255° |
| 2026-05-04 02:44 | 49.25501 | -178.14095 | 35825 ft | 477 kts | 255° |
| 2026-05-04 02:45 | 49.24226 | -178.23991 | 35815 ft | 477 kts | 255° |
| 2026-05-04 02:45 | 49.22928 | -178.33966 | 35811 ft | 477 kts | 255° |
| 2026-05-04 02:46 | 49.21625 | -178.43930 | 35805 ft | 477 kts | 255° |
| 2026-05-04 02:46 | 49.20314 | -178.53887 | 35802 ft | 477 kts | 255° |
| 2026-05-04 02:47 | 49.18993 | -178.63843 | 35793 ft | 478 kts | 255° |
| 2026-05-04 02:47 | 49.17665 | -178.73806 | 35783 ft | 478 kts | 255° |
| 2026-05-04 02:48 | 49.16326 | -178.83775 | 35776 ft | 478 kts | 255° |
| 2026-05-04 02:48 | 49.14988 | -178.93656 | 35770 ft | 478 kts | 255° |
| 2026-05-04 02:49 | 49.13628 | -179.03621 | 35765 ft | 479 kts | 255° |
| 2026-05-04 02:49 | 49.12261 | -179.13573 | 35759 ft | 479 kts | 255° |
| 2026-05-04 02:50 | 49.10885 | -179.23529 | 35749 ft | 479 kts | 255° |
| 2026-05-04 02:50 | 49.09499 | -179.33493 | 35745 ft | 479 kts | 255° |
| 2026-05-04 02:51 | 49.08107 | -179.43432 | 35738 ft | 478 kts | 255° |
| 2026-05-04 02:51 | 49.06709 | -179.53350 | 35736 ft | 479 kts | 255° |
| 2026-05-04 02:52 | 49.05308 | -179.63218 | 35730 ft | 479 kts | 255° |
| 2026-05-04 02:52 | 49.04122 | -179.71524 | 36078 ft | 476 kts | 255° |
| 2026-05-04 02:53 | 49.03417 | -179.76440 | 36452 ft | 473 kts | 255° |
| 2026-05-04 02:53 | 49.02715 | -179.81315 | 36777 ft | 471 kts | 255° |
| 2026-05-04 02:53 | 49.02007 | -179.86210 | 37084 ft | 470 kts | 255° |
| 2026-05-04 02:53 | 49.01300 | -179.91089 | 37313 ft | 470 kts | 255° |
| 2026-05-04 02:54 | 49.00593 | -179.95948 | 37545 ft | 470 kts | 255° |
| 2026-05-04 02:54 | 48.99738 | 179.99240 | 37689 ft | 471 kts | 249° |
| 2026-05-04 02:54 | 48.97564 | 179.89770 | 37703 ft | 475 kts | 249° |
| 2026-05-04 02:55 | 48.94095 | 179.75583 | 37693 ft | 477 kts | 248° |
| 2026-05-04 02:56 | 48.91769 | 179.66134 | 37693 ft | 478 kts | 249° |
| 2026-05-04 02:56 | 48.89436 | 179.56649 | 37695 ft | 479 kts | 249° |
| 2026-05-04 02:57 | 48.87089 | 179.47135 | 37691 ft | 480 kts | 249° |
| 2026-05-04 02:57 | 48.84736 | 179.37628 | 37690 ft | 481 kts | 249° |
| 2026-05-04 02:58 | 48.82388 | 179.28186 | 37689 ft | 481 kts | 249° |
| 2026-05-04 02:58 | 48.80014 | 179.18683 | 37687 ft | 481 kts | 249° |
| 2026-05-04 02:59 | 48.77630 | 179.09181 | 37684 ft | 481 kts | 249° |
| 2026-05-04 02:59 | 48.75247 | 178.99720 | 37678 ft | 481 kts | 249° |
| 2026-05-04 03:00 | 48.72852 | 178.90252 | 37680 ft | 480 kts | 249° |
| 2026-05-04 03:00 | 48.70451 | 178.80803 | 37679 ft | 480 kts | 249° |
| 2026-05-04 03:01 | 48.68046 | 178.71375 | 37674 ft | 480 kts | 249° |
| 2026-05-04 03:01 | 48.65646 | 178.62003 | 37674 ft | 480 kts | 249° |
| 2026-05-04 03:02 | 48.63225 | 178.52591 | 37672 ft | 480 kts | 249° |
| 2026-05-04 03:02 | 48.60793 | 178.43176 | 37674 ft | 479 kts | 249° |
| 2026-05-04 03:03 | 48.58361 | 178.33797 | 37670 ft | 479 kts | 249° |
| 2026-05-04 03:03 | 48.55921 | 178.24428 | 37671 ft | 479 kts | 249° |
| 2026-05-04 03:04 | 48.53476 | 178.15079 | 37669 ft | 478 kts | 249° |
| 2026-05-04 03:04 | 48.51027 | 178.05747 | 37665 ft | 478 kts | 249° |
| 2026-05-04 03:05 | 48.48586 | 177.96487 | 37664 ft | 478 kts | 249° |
| 2026-05-04 03:05 | 48.46124 | 177.87182 | 37662 ft | 477 kts | 249° |
| 2026-05-04 03:06 | 48.43657 | 177.77900 | 37658 ft | 477 kts | 249° |
| 2026-05-04 03:06 | 48.41182 | 177.68620 | 37658 ft | 477 kts | 249° |
| 2026-05-04 03:07 | 48.38703 | 177.59364 | 37657 ft | 476 kts | 249° |
| 2026-05-04 03:07 | 48.36220 | 177.50131 | 37656 ft | 476 kts | 249° |
| 2026-05-04 03:08 | 48.33728 | 177.40900 | 37649 ft | 476 kts | 249° |
| 2026-05-04 03:08 | 48.31232 | 177.31689 | 37652 ft | 476 kts | 249° |
| 2026-05-04 03:09 | 48.28730 | 177.22495 | 37649 ft | 475 kts | 249° |
| 2026-05-04 03:09 | 48.26223 | 177.13316 | 37648 ft | 475 kts | 249° |
| 2026-05-04 03:10 | 48.23705 | 177.04135 | 37647 ft | 475 kts | 249° |
| 2026-05-04 03:10 | 48.21186 | 176.94984 | 37644 ft | 474 kts | 249° |
| 2026-05-04 03:11 | 48.18661 | 176.85845 | 37640 ft | 474 kts | 249° |
| 2026-05-04 03:11 | 48.16147 | 176.76782 | 37643 ft | 474 kts | 249° |
| 2026-05-04 03:12 | 48.13598 | 176.67630 | 37641 ft | 473 kts | 249° |
| 2026-05-04 03:12 | 48.11057 | 176.58539 | 37636 ft | 473 kts | 249° |
| 2026-05-04 03:13 | 48.08527 | 176.49520 | 37636 ft | 472 kts | 249° |
| 2026-05-04 03:13 | 48.05979 | 176.40475 | 37632 ft | 472 kts | 249° |
| 2026-05-04 03:14 | 48.03418 | 176.31416 | 37630 ft | 471 kts | 249° |
| 2026-05-04 03:14 | 48.00874 | 176.22452 | 37639 ft | 471 kts | 248° |
| 2026-05-04 03:15 | 47.98313 | 176.13463 | 37626 ft | 470 kts | 248° |
| 2026-05-04 03:15 | 47.95747 | 176.04486 | 37625 ft | 470 kts | 248° |
| 2026-05-04 03:16 | 47.93172 | 175.95512 | 37633 ft | 470 kts | 248° |
| 2026-05-04 03:16 | 47.90593 | 175.86559 | 37612 ft | 469 kts | 248° |
| 2026-05-04 03:17 | 47.88012 | 175.77634 | 37625 ft | 469 kts | 248° |
| 2026-05-04 03:17 | 47.85423 | 175.68712 | 37624 ft | 469 kts | 248° |
| 2026-05-04 03:18 | 47.82830 | 175.59806 | 37613 ft | 468 kts | 248° |
| 2026-05-04 03:18 | 47.80225 | 175.50894 | 37612 ft | 468 kts | 248° |
| 2026-05-04 03:19 | 47.77636 | 175.42070 | 37612 ft | 468 kts | 248° |
| 2026-05-04 03:19 | 47.75022 | 175.33191 | 37615 ft | 468 kts | 249° |
| 2026-05-04 03:20 | 47.72406 | 175.24336 | 37615 ft | 468 kts | 249° |
| 2026-05-04 03:20 | 47.69785 | 175.15500 | 37612 ft | 467 kts | 249° |
| 2026-05-04 03:21 | 47.67156 | 175.06668 | 37607 ft | 467 kts | 249° |
| 2026-05-04 03:21 | 47.64528 | 174.97866 | 37606 ft | 467 kts | 249° |
| 2026-05-04 03:22 | 47.61892 | 174.89073 | 37604 ft | 466 kts | 249° |
| 2026-05-04 03:22 | 47.59252 | 174.80298 | 37602 ft | 465 kts | 249° |
| 2026-05-04 03:23 | 47.56624 | 174.71594 | 37603 ft | 465 kts | 249° |
| 2026-05-04 03:23 | 47.53963 | 174.62810 | 37602 ft | 464 kts | 249° |
| 2026-05-04 03:24 | 47.51333 | 174.54160 | 37591 ft | 463 kts | 249° |
| 2026-05-04 03:24 | 47.48684 | 174.45475 | 37596 ft | 463 kts | 249° |
| 2026-05-04 03:25 | 47.46032 | 174.36812 | 37594 ft | 462 kts | 249° |
| 2026-05-04 03:25 | 47.43375 | 174.28162 | 37588 ft | 462 kts | 249° |
| 2026-05-04 03:26 | 47.40714 | 174.19531 | 37587 ft | 461 kts | 249° |
| 2026-05-04 03:26 | 47.38045 | 174.10902 | 37588 ft | 461 kts | 248° |
| 2026-05-04 03:27 | 47.35372 | 174.02290 | 37587 ft | 461 kts | 248° |
| 2026-05-04 03:27 | 47.32713 | 173.93754 | 37586 ft | 461 kts | 248° |
| 2026-05-04 03:28 | 47.30035 | 173.85184 | 37587 ft | 460 kts | 249° |
| 2026-05-04 03:28 | 47.27353 | 173.76631 | 37584 ft | 460 kts | 249° |
| 2026-05-04 03:29 | 47.24663 | 173.68082 | 37584 ft | 460 kts | 249° |
| 2026-05-04 03:29 | 47.22406 | 173.60931 | 37585 ft | 460 kts | 249° |
| 2026-05-04 03:30 | 47.19705 | 173.52397 | 37583 ft | 459 kts | 249° |
| 2026-05-04 03:30 | 47.17000 | 173.43883 | 37586 ft | 459 kts | 249° |
| 2026-05-04 03:31 | 47.14290 | 173.35379 | 37583 ft | 459 kts | 249° |
| 2026-05-04 03:31 | 47.11577 | 173.26895 | 37585 ft | 459 kts | 249° |
| 2026-05-04 03:32 | 47.08860 | 173.18427 | 37582 ft | 458 kts | 249° |
| 2026-05-04 03:32 | 47.06156 | 173.10027 | 37591 ft | 458 kts | 249° |
| 2026-05-04 03:33 | 47.03429 | 173.01584 | 37585 ft | 458 kts | 249° |
| 2026-05-04 03:33 | 47.00690 | 172.93133 | 37585 ft | 458 kts | 249° |
| 2026-05-04 03:34 | 46.97953 | 172.84714 | 37586 ft | 458 kts | 249° |
| 2026-05-04 03:34 | 46.95209 | 172.76301 | 37585 ft | 457 kts | 249° |
| 2026-05-04 03:35 | 46.92463 | 172.67908 | 37592 ft | 457 kts | 249° |
| 2026-05-04 03:35 | 46.89722 | 172.59561 | 37598 ft | 457 kts | 249° |
| 2026-05-04 03:36 | 46.86961 | 172.51176 | 37595 ft | 457 kts | 249° |
| 2026-05-04 03:36 | 46.84197 | 172.42811 | 37590 ft | 457 kts | 249° |
| 2026-05-04 03:37 | 46.81423 | 172.34446 | 37589 ft | 457 kts | 249° |
| 2026-05-04 03:37 | 46.78647 | 172.26095 | 37600 ft | 457 kts | 249° |
| 2026-05-04 03:38 | 46.75862 | 172.17750 | 37605 ft | 457 kts | 249° |
| 2026-05-04 03:38 | 46.73077 | 172.09431 | 37602 ft | 457 kts | 249° |
| 2026-05-04 03:39 | 46.70287 | 172.01119 | 37606 ft | 456 kts | 249° |
| 2026-05-04 03:39 | 46.67489 | 171.92814 | 37609 ft | 456 kts | 249° |
| 2026-05-04 03:40 | 46.64687 | 171.84523 | 37616 ft | 456 kts | 249° |
| 2026-05-04 03:40 | 46.61883 | 171.76251 | 37615 ft | 455 kts | 249° |
| 2026-05-04 03:41 | 46.59078 | 171.68003 | 37615 ft | 454 kts | 249° |
| 2026-05-04 03:41 | 46.56270 | 171.59774 | 37617 ft | 454 kts | 249° |
| 2026-05-04 03:42 | 46.53456 | 171.51551 | 37626 ft | 453 kts | 249° |
| 2026-05-04 03:42 | 46.50647 | 171.43371 | 37637 ft | 452 kts | 250° |
| 2026-05-04 03:43 | 46.47837 | 171.35209 | 37635 ft | 451 kts | 250° |
| 2026-05-04 03:43 | 46.45026 | 171.27071 | 37637 ft | 451 kts | 250° |
| 2026-05-04 03:44 | 46.42213 | 171.18953 | 37643 ft | 450 kts | 250° |
| 2026-05-04 03:44 | 46.39418 | 171.10910 | 37642 ft | 449 kts | 250° |
| 2026-05-04 03:45 | 46.36603 | 171.02836 | 37645 ft | 448 kts | 250° |
| 2026-05-04 03:45 | 46.33789 | 170.94788 | 37650 ft | 447 kts | 250° |
| 2026-05-04 03:46 | 46.30971 | 170.86754 | 37661 ft | 447 kts | 250° |
| 2026-05-04 03:46 | 46.28156 | 170.78755 | 37662 ft | 446 kts | 250° |
| 2026-05-04 03:47 | 46.25337 | 170.70765 | 37666 ft | 445 kts | 250° |
| 2026-05-04 03:47 | 46.22518 | 170.62800 | 37669 ft | 444 kts | 250° |
| 2026-05-04 03:48 | 46.19712 | 170.54895 | 37678 ft | 444 kts | 250° |
| 2026-05-04 03:48 | 46.16888 | 170.46961 | 37690 ft | 443 kts | 250° |
| 2026-05-04 03:49 | 46.14069 | 170.39068 | 37684 ft | 442 kts | 250° |
| 2026-05-04 03:49 | 46.11247 | 170.31187 | 37687 ft | 442 kts | 251° |
| 2026-05-04 03:50 | 46.08423 | 170.23326 | 37694 ft | 441 kts | 251° |
| 2026-05-04 03:50 | 46.05596 | 170.15478 | 37701 ft | 440 kts | 251° |
| 2026-05-04 03:51 | 46.02774 | 170.07667 | 37707 ft | 440 kts | 251° |
| 2026-05-04 03:51 | 46.00031 | 169.99777 | 37698 ft | 434 kts | 256° |
| 2026-05-04 03:52 | 45.97949 | 169.91696 | 37717 ft | 430 kts | 258° |
| 2026-05-04 03:52 | 45.95980 | 169.83590 | 37715 ft | 429 kts | 258° |
| 2026-05-04 03:53 | 45.94019 | 169.75508 | 37718 ft | 428 kts | 258° |
| 2026-05-04 03:53 | 45.92043 | 169.67442 | 37723 ft | 427 kts | 258° |
| 2026-05-04 03:54 | 45.90062 | 169.59408 | 37723 ft | 426 kts | 258° |
| 2026-05-04 03:54 | 45.88081 | 169.51406 | 37734 ft | 425 kts | 258° |
| 2026-05-04 03:55 | 45.86092 | 169.43397 | 37734 ft | 424 kts | 259° |
| 2026-05-04 03:55 | 45.84107 | 169.35431 | 37740 ft | 423 kts | 259° |
| 2026-05-04 03:56 | 45.82127 | 169.27513 | 37757 ft | 422 kts | 259° |
| 2026-05-04 03:56 | 45.80141 | 169.19594 | 37755 ft | 421 kts | 259° |
| 2026-05-04 03:57 | 45.78154 | 169.11703 | 37757 ft | 420 kts | 259° |
| 2026-05-04 03:57 | 45.76164 | 169.03826 | 37759 ft | 420 kts | 259° |
| 2026-05-04 03:58 | 45.73194 | 168.92120 | 37768 ft | 418 kts | 259° |
| 2026-05-04 03:58 | 45.71196 | 168.84282 | 37779 ft | 418 kts | 259° |
| 2026-05-04 03:59 | 45.69208 | 168.76508 | 37777 ft | 416 kts | 259° |
| 2026-05-04 03:59 | 45.67201 | 168.68683 | 37781 ft | 415 kts | 259° |
| 2026-05-04 04:00 | 45.65206 | 168.60931 | 37791 ft | 414 kts | 259° |
| 2026-05-04 04:00 | 45.63544 | 168.54496 | 37792 ft | 413 kts | 259° |
| 2026-05-04 04:01 | 45.61557 | 168.46824 | 37792 ft | 411 kts | 259° |
| 2026-05-04 04:01 | 45.59558 | 168.39131 | 37799 ft | 409 kts | 259° |
| 2026-05-04 04:02 | 45.57562 | 168.31469 | 37805 ft | 407 kts | 260° |
| 2026-05-04 04:02 | 45.55590 | 168.23924 | 37812 ft | 404 kts | 260° |
| 2026-05-04 04:03 | 45.53634 | 168.16478 | 37816 ft | 402 kts | 260° |
| 2026-05-04 04:03 | 45.51677 | 168.09034 | 37809 ft | 400 kts | 260° |
| 2026-05-04 04:04 | 45.49718 | 168.01605 | 37827 ft | 399 kts | 260° |
| 2026-05-04 04:04 | 45.47756 | 167.94206 | 37830 ft | 397 kts | 260° |
| 2026-05-04 04:05 | 45.45803 | 167.86855 | 37837 ft | 396 kts | 260° |
| 2026-05-04 04:05 | 45.43850 | 167.79521 | 37839 ft | 396 kts | 259° |
| 2026-05-04 04:06 | 45.41891 | 167.72189 | 37843 ft | 396 kts | 259° |
| 2026-05-04 04:06 | 45.39928 | 167.64867 | 37848 ft | 395 kts | 259° |
| 2026-05-04 04:07 | 45.37962 | 167.57554 | 37853 ft | 396 kts | 259° |
| 2026-05-04 04:07 | 45.36000 | 167.50283 | 37859 ft | 396 kts | 259° |
| 2026-05-04 04:08 | 45.34023 | 167.42979 | 37859 ft | 396 kts | 259° |
| 2026-05-04 04:08 | 45.32040 | 167.35671 | 37869 ft | 396 kts | 259° |
| 2026-05-04 04:09 | 45.30048 | 167.28353 | 37874 ft | 397 kts | 259° |
| 2026-05-04 04:09 | 45.28050 | 167.21038 | 37876 ft | 397 kts | 259° |
| 2026-05-04 04:10 | 45.26044 | 167.13713 | 37885 ft | 398 kts | 259° |
| 2026-05-04 04:10 | 45.24034 | 167.06396 | 37885 ft | 398 kts | 259° |
| 2026-05-04 04:11 | 45.22017 | 166.99075 | 37888 ft | 398 kts | 259° |
| 2026-05-04 04:11 | 45.19994 | 166.91759 | 37896 ft | 399 kts | 259° |
| 2026-05-04 04:12 | 45.17962 | 166.84429 | 37895 ft | 399 kts | 259° |
| 2026-05-04 04:12 | 45.15926 | 166.77107 | 37903 ft | 399 kts | 259° |
| 2026-05-04 04:13 | 45.13893 | 166.69818 | 37903 ft | 400 kts | 258° |
| 2026-05-04 04:13 | 45.11843 | 166.62492 | 37911 ft | 400 kts | 258° |
| 2026-05-04 04:14 | 45.09783 | 166.55151 | 37910 ft | 400 kts | 258° |
| 2026-05-04 04:14 | 45.07725 | 166.47838 | 37920 ft | 400 kts | 258° |
| 2026-05-04 04:15 | 45.05654 | 166.40502 | 37920 ft | 400 kts | 258° |
| 2026-05-04 04:15 | 45.03581 | 166.33182 | 37926 ft | 400 kts | 258° |
| 2026-05-04 04:16 | 45.01517 | 166.25913 | 37931 ft | 401 kts | 258° |
| 2026-05-04 04:16 | 44.99438 | 166.18612 | 37938 ft | 401 kts | 258° |
| 2026-05-04 04:17 | 44.97348 | 166.11294 | 37940 ft | 401 kts | 258° |
| 2026-05-04 04:17 | 44.95250 | 166.03973 | 37945 ft | 402 kts | 258° |
| 2026-05-04 04:18 | 44.93148 | 165.96656 | 37950 ft | 402 kts | 257° |
| 2026-05-04 04:18 | 44.91050 | 165.89381 | 37958 ft | 403 kts | 257° |
| 2026-05-04 04:19 | 44.88933 | 165.82057 | 37955 ft | 403 kts | 257° |
| 2026-05-04 04:19 | 44.86810 | 165.74732 | 37961 ft | 404 kts | 257° |
| 2026-05-04 04:20 | 44.84676 | 165.67394 | 37970 ft | 404 kts | 257° |
| 2026-05-04 04:20 | 44.82534 | 165.60050 | 37972 ft | 405 kts | 257° |
| 2026-05-04 04:21 | 44.80386 | 165.52707 | 37973 ft | 405 kts | 257° |
| 2026-05-04 04:21 | 44.78232 | 165.45364 | 37975 ft | 406 kts | 256° |
| 2026-05-04 04:22 | 44.76070 | 165.38014 | 37980 ft | 406 kts | 256° |
| 2026-05-04 04:22 | 44.73900 | 165.30662 | 37986 ft | 406 kts | 256° |
| 2026-05-04 04:23 | 44.71740 | 165.23365 | 37985 ft | 407 kts | 256° |
| 2026-05-04 04:23 | 44.69559 | 165.16015 | 37989 ft | 407 kts | 256° |
| 2026-05-04 04:24 | 44.67368 | 165.08656 | 37991 ft | 407 kts | 256° |
| 2026-05-04 04:24 | 44.65177 | 165.01317 | 37998 ft | 408 kts | 256° |
| 2026-05-04 04:25 | 44.62979 | 164.93975 | 37997 ft | 408 kts | 256° |
| 2026-05-04 04:25 | 44.60773 | 164.86627 | 38007 ft | 408 kts | 255° |
| 2026-05-04 04:26 | 44.58562 | 164.79285 | 38006 ft | 408 kts | 255° |
| 2026-05-04 04:26 | 44.57452 | 164.75621 | 37686 ft | 406 kts | 258° |
| 2026-05-04 04:26 | 44.56352 | 164.72043 | 37926 ft | 394 kts | 258° |
| 2026-05-04 04:27 | 44.54233 | 164.65098 | 38013 ft | 382 kts | 259° |
| 2026-05-04 04:27 | 44.52188 | 164.58308 | 38012 ft | 380 kts | 259° |
| 2026-05-04 04:28 | 44.50130 | 164.51495 | 38018 ft | 380 kts | 258° |
| 2026-05-04 04:28 | 44.48058 | 164.44690 | 38016 ft | 379 kts | 258° |
| 2026-05-04 04:29 | 44.45978 | 164.37898 | 38020 ft | 379 kts | 258° |
| 2026-05-04 04:29 | 44.43899 | 164.31125 | 38023 ft | 379 kts | 258° |
| 2026-05-04 04:30 | 44.41815 | 164.24354 | 38024 ft | 378 kts | 258° |
| 2026-05-04 04:30 | 44.39731 | 164.17600 | 38025 ft | 378 kts | 258° |
| 2026-05-04 04:31 | 44.37643 | 164.10848 | 38029 ft | 377 kts | 258° |
| 2026-05-04 04:31 | 44.35555 | 164.04117 | 38034 ft | 377 kts | 258° |
| 2026-05-04 04:32 | 44.33463 | 163.97393 | 38031 ft | 377 kts | 258° |
| 2026-05-04 04:32 | 44.31381 | 163.90713 | 38033 ft | 377 kts | 258° |
| 2026-05-04 04:33 | 44.29287 | 163.84010 | 38037 ft | 376 kts | 258° |
| 2026-05-04 04:33 | 44.27187 | 163.77309 | 38046 ft | 376 kts | 257° |
| 2026-05-04 04:34 | 44.25087 | 163.70625 | 38040 ft | 376 kts | 257° |
| 2026-05-04 04:34 | 44.22985 | 163.63951 | 38047 ft | 376 kts | 257° |
| 2026-05-04 04:35 | 44.21234 | 163.58406 | 38046 ft | 376 kts | 257° |
| 2026-05-04 04:35 | 44.19126 | 163.51744 | 38049 ft | 376 kts | 257° |
| 2026-05-04 04:36 | 44.17015 | 163.45089 | 38048 ft | 376 kts | 257° |
| 2026-05-04 04:36 | 44.14887 | 163.38400 | 38053 ft | 376 kts | 257° |
| 2026-05-04 04:37 | 44.10642 | 163.25105 | 38059 ft | 377 kts | 257° |
| 2026-05-04 04:38 | 44.08501 | 163.18426 | 38054 ft | 377 kts | 256° |
| 2026-05-04 04:38 | 44.06364 | 163.11776 | 38055 ft | 377 kts | 256° |
| 2026-05-04 04:39 | 44.04222 | 163.05124 | 38059 ft | 377 kts | 256° |
| 2026-05-04 04:39 | 44.02071 | 162.98465 | 38058 ft | 377 kts | 256° |
| 2026-05-04 04:40 | 43.99919 | 162.91819 | 38062 ft | 377 kts | 256° |
| 2026-05-04 04:40 | 43.97759 | 162.85164 | 38062 ft | 378 kts | 256° |
| 2026-05-04 04:41 | 43.95605 | 162.78545 | 38062 ft | 378 kts | 256° |
| 2026-05-04 04:41 | 43.93435 | 162.71893 | 38065 ft | 378 kts | 256° |
| 2026-05-04 04:42 | 43.91262 | 162.65245 | 38066 ft | 378 kts | 256° |
| 2026-05-04 04:42 | 43.89068 | 162.58556 | 38064 ft | 379 kts | 255° |
| 2026-05-04 04:43 | 43.86899 | 162.51957 | 38068 ft | 379 kts | 255° |
| 2026-05-04 04:43 | 43.84710 | 162.45313 | 38069 ft | 379 kts | 255° |
| 2026-05-04 04:44 | 43.82516 | 162.38671 | 38067 ft | 379 kts | 255° |
| 2026-05-04 04:44 | 43.80316 | 162.32028 | 38075 ft | 379 kts | 255° |
| 2026-05-04 04:45 | 43.78114 | 162.25396 | 38073 ft | 379 kts | 255° |
| 2026-05-04 04:47 | 43.70392 | 162.02262 | 38064 ft | 379 kts | 254° |
| 2026-05-04 04:47 | 43.68169 | 161.95639 | 38070 ft | 379 kts | 254° |
| 2026-05-04 04:48 | 43.65944 | 161.89028 | 38067 ft | 379 kts | 254° |
| 2026-05-04 04:49 | 43.60373 | 161.72541 | 38068 ft | 379 kts | 254° |
| 2026-05-04 04:49 | 43.58136 | 161.65950 | 38067 ft | 379 kts | 254° |
| 2026-05-04 04:50 | 43.55896 | 161.59366 | 38065 ft | 380 kts | 253° |
| 2026-05-04 04:50 | 43.53646 | 161.52767 | 38068 ft | 380 kts | 253° |
| 2026-05-04 04:51 | 43.51410 | 161.46226 | 38067 ft | 380 kts | 253° |
| 2026-05-04 04:51 | 43.49150 | 161.39632 | 38065 ft | 380 kts | 253° |
| 2026-05-04 04:52 | 43.46884 | 161.33036 | 38072 ft | 380 kts | 253° |
| 2026-05-04 04:52 | 43.44613 | 161.26443 | 38066 ft | 380 kts | 253° |
| 2026-05-04 04:53 | 43.42340 | 161.19857 | 38060 ft | 380 kts | 253° |
| 2026-05-04 04:53 | 43.40080 | 161.13325 | 38068 ft | 381 kts | 253° |
| 2026-05-04 04:54 | 43.37799 | 161.06747 | 38064 ft | 381 kts | 253° |
| 2026-05-04 04:54 | 43.35512 | 161.00170 | 38064 ft | 381 kts | 253° |
| 2026-05-04 04:55 | 43.33221 | 160.93597 | 38064 ft | 381 kts | 252° |
| 2026-05-04 04:55 | 43.30925 | 160.87023 | 38063 ft | 381 kts | 252° |
| 2026-05-04 04:56 | 43.28621 | 160.80446 | 38063 ft | 382 kts | 252° |
| 2026-05-04 04:56 | 43.26316 | 160.73879 | 38060 ft | 382 kts | 252° |
| 2026-05-04 04:57 | 43.24005 | 160.67310 | 38066 ft | 382 kts | 252° |
| 2026-05-04 04:57 | 43.21688 | 160.60741 | 38065 ft | 383 kts | 252° |
| 2026-05-04 04:58 | 43.19366 | 160.54173 | 38060 ft | 383 kts | 252° |
| 2026-05-04 04:58 | 43.17051 | 160.47641 | 38060 ft | 384 kts | 251° |
| 2026-05-04 04:59 | 43.14702 | 160.41028 | 38059 ft | 384 kts | 251° |
| 2026-05-04 04:59 | 43.12359 | 160.34449 | 38062 ft | 384 kts | 251° |
| 2026-05-04 05:00 | 43.10009 | 160.27863 | 38060 ft | 385 kts | 251° |
| 2026-05-04 05:01 | 43.06482 | 160.18011 | 38060 ft | 386 kts | 251° |
| 2026-05-04 05:01 | 43.04111 | 160.11406 | 38055 ft | 386 kts | 251° |
| 2026-05-04 05:02 | 43.01737 | 160.04810 | 38059 ft | 387 kts | 251° |
| 2026-05-04 05:02 | 42.99373 | 159.98239 | 38057 ft | 387 kts | 251° |
| 2026-05-04 05:03 | 42.97218 | 159.91520 | 38056 ft | 386 kts | 253° |
| 2026-05-04 05:04 | 42.93055 | 159.77951 | 38052 ft | 388 kts | 252° |
| 2026-05-04 05:04 | 42.90910 | 159.71159 | 38055 ft | 389 kts | 252° |
| 2026-05-04 05:06 | 42.82232 | 159.43961 | 38048 ft | 393 kts | 252° |
| 2026-05-04 05:07 | 42.80040 | 159.37127 | 38043 ft | 394 kts | 252° |
| 2026-05-04 05:07 | 42.77839 | 159.30285 | 38043 ft | 395 kts | 252° |
| 2026-05-04 05:09 | 42.67865 | 158.99495 | 38041 ft | 395 kts | 251° |
| 2026-05-04 05:10 | 42.65635 | 158.92656 | 38040 ft | 395 kts | 251° |
| 2026-05-04 05:10 | 42.63401 | 158.85824 | 38031 ft | 395 kts | 251° |
| 2026-05-04 05:11 | 42.61180 | 158.79052 | 38027 ft | 395 kts | 251° |
| 2026-05-04 05:11 | 42.58928 | 158.72199 | 38032 ft | 395 kts | 251° |
| 2026-05-04 05:12 | 42.56703 | 158.65448 | 38036 ft | 395 kts | 251° |
| 2026-05-04 05:12 | 42.54458 | 158.58652 | 38031 ft | 394 kts | 251° |
| 2026-05-04 05:13 | 42.52212 | 158.51871 | 38032 ft | 394 kts | 251° |
| 2026-05-04 05:13 | 42.49963 | 158.45100 | 38031 ft | 394 kts | 251° |
| 2026-05-04 05:14 | 42.48088 | 158.39465 | 38022 ft | 394 kts | 251° |
| 2026-05-04 05:14 | 42.45833 | 158.32704 | 38033 ft | 394 kts | 251° |
| 2026-05-04 05:15 | 42.43573 | 158.25943 | 38022 ft | 394 kts | 251° |
| 2026-05-04 05:15 | 42.41311 | 158.19196 | 38023 ft | 394 kts | 251° |
| 2026-05-04 05:16 | 42.39045 | 158.12452 | 38017 ft | 394 kts | 251° |
| 2026-05-04 05:16 | 42.36772 | 158.05704 | 38018 ft | 394 kts | 251° |
| 2026-05-04 05:17 | 42.34497 | 157.98966 | 38016 ft | 394 kts | 251° |
| 2026-05-04 05:17 | 42.32232 | 157.92273 | 38010 ft | 394 kts | 251° |
| 2026-05-04 05:18 | 42.29931 | 157.85493 | 38010 ft | 394 kts | 251° |
| 2026-05-04 05:18 | 42.27657 | 157.78806 | 38012 ft | 394 kts | 251° |
| 2026-05-04 05:19 | 42.25360 | 157.72072 | 38010 ft | 394 kts | 251° |
| 2026-05-04 05:19 | 42.23061 | 157.65347 | 38011 ft | 394 kts | 250° |
| 2026-05-04 05:20 | 42.20757 | 157.58621 | 38005 ft | 395 kts | 250° |
| 2026-05-04 05:20 | 42.18449 | 157.51903 | 38001 ft | 395 kts | 250° |
| 2026-05-04 05:21 | 42.16131 | 157.45171 | 38000 ft | 395 kts | 250° |
| 2026-05-04 05:21 | 42.13815 | 157.38461 | 38001 ft | 395 kts | 250° |
| 2026-05-04 05:22 | 42.11495 | 157.31757 | 37998 ft | 395 kts | 250° |
| 2026-05-04 05:22 | 42.09164 | 157.25034 | 37993 ft | 395 kts | 250° |
| 2026-05-04 05:23 | 42.06838 | 157.18346 | 37991 ft | 395 kts | 250° |
| 2026-05-04 05:23 | 42.04501 | 157.11639 | 38003 ft | 396 kts | 250° |
| 2026-05-04 05:24 | 42.02157 | 157.04930 | 37994 ft | 396 kts | 250° |
| 2026-05-04 05:24 | 41.99808 | 156.98222 | 37986 ft | 396 kts | 250° |
| 2026-05-04 05:25 | 41.97467 | 156.91552 | 37975 ft | 397 kts | 250° |
| 2026-05-04 05:25 | 41.95108 | 156.84848 | 37981 ft | 397 kts | 250° |
| 2026-05-04 05:26 | 41.92738 | 156.78131 | 37974 ft | 397 kts | 249° |
| 2026-05-04 05:26 | 41.90363 | 156.71413 | 37976 ft | 398 kts | 249° |
| 2026-05-04 05:28 | 41.80810 | 156.44556 | 37959 ft | 399 kts | 249° |
| 2026-05-04 05:29 | 41.78406 | 156.37836 | 37955 ft | 400 kts | 249° |
| 2026-05-04 05:29 | 41.76013 | 156.31165 | 37955 ft | 400 kts | 249° |
| 2026-05-04 05:31 | 41.66319 | 156.04295 | 37941 ft | 400 kts | 249° |
| 2026-05-04 05:32 | 41.63885 | 155.97590 | 37936 ft | 400 kts | 249° |
| 2026-05-04 05:33 | 41.60230 | 155.87547 | 37936 ft | 400 kts | 249° |
| 2026-05-04 05:33 | 41.57787 | 155.80856 | 37929 ft | 400 kts | 248° |
| 2026-05-04 05:34 | 41.55362 | 155.74228 | 37927 ft | 400 kts | 248° |
| 2026-05-04 05:34 | 41.52911 | 155.67547 | 37924 ft | 400 kts | 248° |
| 2026-05-04 05:35 | 41.50464 | 155.60892 | 37920 ft | 399 kts | 248° |
| 2026-05-04 05:35 | 41.48011 | 155.54234 | 37913 ft | 399 kts | 248° |
| 2026-05-04 05:36 | 41.45556 | 155.47586 | 37911 ft | 399 kts | 248° |
| 2026-05-04 05:36 | 41.43116 | 155.40994 | 37907 ft | 398 kts | 248° |
| 2026-05-04 05:37 | 41.40660 | 155.34376 | 37907 ft | 398 kts | 248° |
| 2026-05-04 05:37 | 41.38205 | 155.27773 | 37903 ft | 397 kts | 248° |
| 2026-05-04 05:38 | 41.34517 | 155.17884 | 37894 ft | 397 kts | 248° |
| 2026-05-04 05:38 | 41.32055 | 155.11302 | 37892 ft | 397 kts | 247° |
| 2026-05-04 05:39 | 41.28351 | 155.01428 | 37886 ft | 397 kts | 247° |
| 2026-05-04 05:40 | 41.24655 | 154.91606 | 37882 ft | 397 kts | 247° |
| 2026-05-04 05:40 | 41.22176 | 154.85038 | 37873 ft | 398 kts | 247° |
| 2026-05-04 05:41 | 41.19690 | 154.78467 | 37875 ft | 398 kts | 247° |
| 2026-05-04 05:41 | 41.17196 | 154.71888 | 37869 ft | 399 kts | 247° |
| 2026-05-04 05:42 | 41.14696 | 154.65308 | 37867 ft | 399 kts | 247° |
| 2026-05-04 05:42 | 41.12186 | 154.58719 | 37860 ft | 400 kts | 246° |
| 2026-05-04 05:43 | 41.09669 | 154.52124 | 37863 ft | 400 kts | 246° |
| 2026-05-04 05:45 | 40.99556 | 154.25781 | 37848 ft | 402 kts | 246° |
| 2026-05-04 05:47 | 40.89351 | 153.99435 | 37834 ft | 402 kts | 246° |
| 2026-05-04 05:47 | 40.86781 | 153.92837 | 37831 ft | 402 kts | 245° |
| 2026-05-04 05:48 | 40.84215 | 153.86266 | 37830 ft | 402 kts | 245° |
| 2026-05-04 05:48 | 40.81644 | 153.79697 | 37829 ft | 402 kts | 245° |
| 2026-05-04 05:49 | 40.79074 | 153.73141 | 37819 ft | 402 kts | 245° |
| 2026-05-04 05:49 | 40.76496 | 153.66582 | 37822 ft | 402 kts | 245° |
| 2026-05-04 05:51 | 40.66607 | 153.41553 | 37808 ft | 401 kts | 245° |
| 2026-05-04 05:52 | 40.64026 | 153.35057 | 37805 ft | 401 kts | 245° |
| 2026-05-04 05:52 | 40.61439 | 153.28557 | 37801 ft | 400 kts | 245° |
| 2026-05-04 05:54 | 40.51089 | 153.02698 | 37783 ft | 399 kts | 245° |
| 2026-05-04 05:55 | 40.48493 | 152.96247 | 37774 ft | 399 kts | 245° |
| 2026-05-04 05:55 | 40.45900 | 152.89818 | 37772 ft | 398 kts | 245° |
| 2026-05-04 05:56 | 40.43300 | 152.83384 | 37784 ft | 399 kts | 244° |
| 2026-05-04 05:56 | 40.40694 | 152.76948 | 37779 ft | 399 kts | 244° |
| 2026-05-04 05:57 | 40.38084 | 152.70519 | 37770 ft | 400 kts | 244° |
| 2026-05-04 05:57 | 40.35462 | 152.64072 | 37767 ft | 400 kts | 244° |
| 2026-05-04 05:58 | 40.32845 | 152.57651 | 37762 ft | 401 kts | 244° |
| 2026-05-04 05:58 | 40.30213 | 152.51210 | 37752 ft | 401 kts | 244° |
| 2026-05-04 05:59 | 40.27574 | 152.44763 | 37754 ft | 401 kts | 244° |
| 2026-05-04 05:59 | 40.24931 | 152.38320 | 37749 ft | 401 kts | 244° |
| 2026-05-04 06:00 | 40.22287 | 152.31888 | 37747 ft | 401 kts | 244° |
| 2026-05-04 06:00 | 40.19635 | 152.25452 | 37740 ft | 402 kts | 244° |
| 2026-05-04 06:01 | 40.16979 | 152.19019 | 37734 ft | 402 kts | 244° |
| 2026-05-04 06:03 | 40.06273 | 151.93225 | 37713 ft | 404 kts | 243° |
| 2026-05-04 06:05 | 39.94088 | 151.64128 | 37692 ft | 408 kts | 243° |
| 2026-05-04 06:06 | 39.91369 | 151.57674 | 37691 ft | 409 kts | 243° |
| 2026-05-04 06:06 | 39.88604 | 151.51127 | 37687 ft | 410 kts | 243° |
| 2026-05-04 06:07 | 39.85872 | 151.44668 | 37684 ft | 410 kts | 243° |
| 2026-05-04 06:07 | 39.83115 | 151.38166 | 37688 ft | 410 kts | 243° |
| 2026-05-04 06:08 | 39.80355 | 151.31669 | 37681 ft | 410 kts | 243° |
| 2026-05-04 06:08 | 39.77586 | 151.25165 | 37681 ft | 410 kts | 243° |
| 2026-05-04 06:09 | 39.74822 | 151.18685 | 37675 ft | 410 kts | 243° |
| 2026-05-04 06:11 | 39.63720 | 150.92801 | 37671 ft | 409 kts | 242° |
| 2026-05-04 06:13 | 39.52603 | 150.67099 | 37658 ft | 408 kts | 242° |
| 2026-05-04 06:14 | 39.42860 | 150.44746 | 37647 ft | 408 kts | 242° |
| 2026-05-04 06:15 | 39.40064 | 150.38360 | 37645 ft | 408 kts | 242° |
| 2026-05-04 06:15 | 39.37266 | 150.31982 | 37645 ft | 408 kts | 242° |
| 2026-05-04 06:16 | 39.34464 | 150.25608 | 37648 ft | 408 kts | 242° |
| 2026-05-04 06:16 | 39.31655 | 150.19233 | 37643 ft | 408 kts | 242° |
| 2026-05-04 06:17 | 39.28847 | 150.12871 | 37638 ft | 408 kts | 241° |
| 2026-05-04 06:17 | 39.26031 | 150.06508 | 37642 ft | 408 kts | 241° |
| 2026-05-04 06:18 | 39.23238 | 150.00205 | 37638 ft | 408 kts | 241° |
| 2026-05-04 06:20 | 39.11966 | 149.74838 | 37638 ft | 408 kts | 241° |
| 2026-05-04 06:21 | 39.04932 | 149.58913 | 37638 ft | 408 kts | 241° |
| 2026-05-04 06:22 | 39.02114 | 149.52570 | 38051 ft | 407 kts | 241° |
| 2026-05-04 06:22 | 39.00708 | 149.49410 | 38416 ft | 405 kts | 241° |
| 2026-05-04 06:25 | 38.82680 | 149.09165 | 39640 ft | 399 kts | 240° |
| 2026-05-04 06:26 | 38.79903 | 149.03010 | 39643 ft | 399 kts | 240° |
| 2026-05-04 06:26 | 38.77595 | 148.97905 | 39636 ft | 398 kts | 240° |
| 2026-05-04 06:27 | 38.70635 | 148.82560 | 39639 ft | 398 kts | 240° |
| 2026-05-04 06:28 | 38.67849 | 148.76436 | 39641 ft | 398 kts | 240° |
| 2026-05-04 06:28 | 38.65055 | 148.70308 | 39642 ft | 398 kts | 240° |
| 2026-05-04 06:29 | 38.62265 | 148.64201 | 39636 ft | 398 kts | 240° |
| 2026-05-04 06:29 | 38.59487 | 148.58131 | 39638 ft | 397 kts | 240° |
| 2026-05-04 06:30 | 38.56695 | 148.52043 | 39641 ft | 397 kts | 240° |
| 2026-05-04 06:30 | 38.53906 | 148.45971 | 39635 ft | 396 kts | 240° |
| 2026-05-04 06:31 | 38.51114 | 148.39906 | 39635 ft | 395 kts | 240° |
| 2026-05-04 06:31 | 38.48318 | 148.33844 | 39636 ft | 395 kts | 240° |
| 2026-05-04 06:33 | 38.37143 | 148.09727 | 39634 ft | 395 kts | 239° |
| 2026-05-04 06:34 | 38.34336 | 148.03697 | 39635 ft | 395 kts | 239° |
| 2026-05-04 06:34 | 38.31532 | 147.97686 | 39640 ft | 395 kts | 239° |
| 2026-05-04 06:36 | 38.20274 | 147.73661 | 39635 ft | 395 kts | 239° |
| 2026-05-04 06:37 | 38.17468 | 147.67701 | 39641 ft | 394 kts | 239° |
| 2026-05-04 06:37 | 38.14646 | 147.61716 | 39645 ft | 394 kts | 239° |
| 2026-05-04 06:38 | 38.11819 | 147.55733 | 39639 ft | 394 kts | 239° |
| 2026-05-04 06:40 | 38.00539 | 147.31970 | 39631 ft | 393 kts | 239° |
| 2026-05-04 06:40 | 37.97717 | 147.26051 | 39644 ft | 392 kts | 239° |
| 2026-05-04 06:41 | 37.94888 | 147.20130 | 39641 ft | 392 kts | 239° |
| 2026-05-04 06:41 | 37.92059 | 147.14220 | 39636 ft | 392 kts | 239° |
| 2026-05-04 06:42 | 37.89230 | 147.08319 | 39637 ft | 392 kts | 238° |
| 2026-05-04 06:44 | 37.77896 | 146.84788 | 39642 ft | 392 kts | 238° |
| 2026-05-04 06:44 | 37.75052 | 146.78908 | 39632 ft | 392 kts | 238° |
| 2026-05-04 06:45 | 37.72199 | 146.73022 | 39636 ft | 392 kts | 238° |
| 2026-05-04 06:45 | 37.69342 | 146.67137 | 39635 ft | 393 kts | 238° |
| 2026-05-04 06:46 | 37.66482 | 146.61257 | 39644 ft | 393 kts | 238° |
| 2026-05-04 06:46 | 37.63615 | 146.55374 | 39634 ft | 393 kts | 238° |
| 2026-05-04 06:48 | 37.52124 | 146.31898 | 39632 ft | 394 kts | 238° |
| 2026-05-04 06:50 | 37.40573 | 146.08466 | 39639 ft | 393 kts | 237° |
| 2026-05-04 06:51 | 37.37698 | 146.02660 | 39644 ft | 393 kts | 237° |
| 2026-05-04 06:51 | 37.34806 | 145.96830 | 39645 ft | 393 kts | 237° |
| 2026-05-04 06:52 | 37.31901 | 145.90982 | 39647 ft | 393 kts | 237° |
| 2026-05-04 06:52 | 37.29009 | 145.85173 | 39636 ft | 394 kts | 237° |
| 2026-05-04 06:53 | 37.26057 | 145.79253 | 39646 ft | 394 kts | 237° |
| 2026-05-04 06:53 | 37.23558 | 145.74248 | 39635 ft | 394 kts | 237° |
| 2026-05-04 06:54 | 37.20615 | 145.68305 | 39634 ft | 395 kts | 239° |
| 2026-05-04 06:54 | 37.18343 | 145.61929 | 39653 ft | 397 kts | 246° |
| 2026-05-04 06:55 | 37.16411 | 145.55458 | 39651 ft | 398 kts | 246° |
| 2026-05-04 06:55 | 37.14490 | 145.48919 | 39635 ft | 398 kts | 246° |
| 2026-05-04 06:57 | 37.06738 | 145.22922 | 39637 ft | 397 kts | 246° |
| 2026-05-04 06:58 | 37.04792 | 145.16444 | 39639 ft | 397 kts | 246° |
| 2026-05-04 06:58 | 37.02857 | 145.10014 | 39642 ft | 397 kts | 246° |
| 2026-05-04 06:59 | 37.00907 | 145.03551 | 39640 ft | 396 kts | 246° |
| 2026-05-04 06:59 | 36.98955 | 144.97096 | 39639 ft | 396 kts | 246° |
| 2026-05-04 07:01 | 36.91946 | 144.74044 | 39639 ft | 395 kts | 245° |
| 2026-05-04 07:02 | 36.89980 | 144.67609 | 39640 ft | 394 kts | 245° |
| 2026-05-04 07:02 | 36.88017 | 144.61201 | 39637 ft | 394 kts | 245° |
| 2026-05-04 07:03 | 36.86055 | 144.54811 | 39635 ft | 394 kts | 245° |
| 2026-05-04 07:03 | 36.84092 | 144.48433 | 39637 ft | 393 kts | 245° |
| 2026-05-04 07:04 | 36.82127 | 144.42060 | 39635 ft | 393 kts | 245° |
| 2026-05-04 07:04 | 36.80160 | 144.35695 | 39637 ft | 392 kts | 245° |
| 2026-05-04 07:05 | 36.78194 | 144.29352 | 39630 ft | 392 kts | 245° |
| 2026-05-04 07:05 | 36.76231 | 144.23038 | 39633 ft | 392 kts | 245° |
| 2026-05-04 07:06 | 36.73268 | 144.13530 | 39631 ft | 392 kts | 245° |
| 2026-05-04 07:07 | 36.71288 | 144.07191 | 39632 ft | 392 kts | 245° |
| 2026-05-04 07:09 | 36.63341 | 143.81900 | 39625 ft | 391 kts | 245° |
| 2026-05-04 07:09 | 36.61361 | 143.75636 | 39623 ft | 391 kts | 245° |
| 2026-05-04 07:10 | 36.59361 | 143.69325 | 39626 ft | 391 kts | 245° |
| 2026-05-04 07:12 | 36.51358 | 143.44205 | 39623 ft | 390 kts | 245° |
| 2026-05-04 07:12 | 36.49323 | 143.37851 | 39619 ft | 390 kts | 245° |
| 2026-05-04 07:13 | 36.47308 | 143.31573 | 39619 ft | 390 kts | 245° |
| 2026-05-04 07:13 | 36.45292 | 143.25306 | 39616 ft | 390 kts | 245° |
| 2026-05-04 07:14 | 36.40256 | 143.09708 | 39616 ft | 390 kts | 245° |
| 2026-05-04 07:15 | 36.38312 | 143.03708 | 39616 ft | 389 kts | 245° |
| 2026-05-04 07:15 | 36.36281 | 142.97455 | 39615 ft | 389 kts | 245° |
| 2026-05-04 07:16 | 36.34251 | 142.91217 | 39615 ft | 389 kts | 245° |
| 2026-05-04 07:16 | 36.32227 | 142.85010 | 39616 ft | 389 kts | 245° |
| 2026-05-04 07:17 | 36.30195 | 142.78795 | 39615 ft | 388 kts | 245° |
| 2026-05-04 07:17 | 36.28168 | 142.72605 | 39616 ft | 388 kts | 245° |
| 2026-05-04 07:18 | 36.26128 | 142.66388 | 39615 ft | 388 kts | 245° |
| 2026-05-04 07:18 | 36.24092 | 142.60199 | 39614 ft | 387 kts | 245° |
| 2026-05-04 07:19 | 36.22059 | 142.54028 | 39617 ft | 387 kts | 245° |
| 2026-05-04 07:19 | 36.20025 | 142.47870 | 39616 ft | 386 kts | 245° |
| 2026-05-04 07:20 | 36.17986 | 142.41710 | 39615 ft | 386 kts | 245° |
| 2026-05-04 07:20 | 36.15850 | 142.35619 | 39616 ft | 385 kts | 244° |
| 2026-05-04 07:22 | 36.07443 | 142.12573 | 39616 ft | 383 kts | 244° |
| 2026-05-04 07:23 | 36.05274 | 142.06569 | 39615 ft | 382 kts | 244° |
| 2026-05-04 07:23 | 36.03106 | 142.00528 | 39616 ft | 382 kts | 244° |
| 2026-05-04 07:24 | 36.00952 | 141.94542 | 39611 ft | 381 kts | 244° |
| 2026-05-04 07:24 | 35.98795 | 141.88563 | 39616 ft | 381 kts | 244° |
| 2026-05-04 07:26 | 35.94430 | 141.63105 | 39612 ft | 392 kts | 264° |
| 2026-05-04 07:27 | 35.94465 | 141.59734 | 39460 ft | 392 kts | 264° |
| 2026-05-04 07:27 | 35.94500 | 141.56366 | 39213 ft | 391 kts | 264° |
| 2026-05-04 07:27 | 35.94531 | 141.53033 | 38722 ft | 388 kts | 263° |
| 2026-05-04 07:27 | 35.94554 | 141.49692 | 38073 ft | 389 kts | 263° |
| 2026-05-04 07:28 | 35.94570 | 141.46357 | 37372 ft | 390 kts | 263° |
| 2026-05-04 07:28 | 35.94584 | 141.43007 | 36697 ft | 390 kts | 263° |
| 2026-05-04 07:28 | 35.94595 | 141.39631 | 36015 ft | 391 kts | 262° |
| 2026-05-04 07:28 | 35.94604 | 141.36275 | 35337 ft | 393 kts | 262° |
| 2026-05-04 07:29 | 35.94612 | 141.32930 | 34615 ft | 396 kts | 262° |
| 2026-05-04 07:29 | 35.94618 | 141.29490 | 33816 ft | 400 kts | 262° |
| 2026-05-04 07:29 | 35.94623 | 141.26031 | 32911 ft | 405 kts | 262° |
| 2026-05-04 07:29 | 35.94626 | 141.22547 | 32054 ft | 408 kts | 262° |
| 2026-05-04 07:30 | 35.94635 | 141.18995 | 31229 ft | 410 kts | 262° |
| 2026-05-04 07:30 | 35.94642 | 141.15436 | 30362 ft | 413 kts | 263° |
| 2026-05-04 07:30 | 35.94645 | 141.11879 | 29429 ft | 417 kts | 263° |
| 2026-05-04 07:30 | 35.94646 | 141.08281 | 28422 ft | 420 kts | 263° |
| 2026-05-04 07:31 | 35.94650 | 141.04703 | 27760 ft | 415 kts | 263° |
| 2026-05-04 07:31 | 35.94666 | 141.01138 | 27111 ft | 412 kts | 264° |
| 2026-05-04 07:33 | 36.03473 | 140.78511 | 22222 ft | 412 kts | 291° |
| 2026-05-04 07:33 | 36.05019 | 140.75561 | 21528 ft | 404 kts | 290° |
| 2026-05-04 07:33 | 36.06522 | 140.72659 | 20856 ft | 399 kts | 290° |
| 2026-05-04 07:33 | 36.07994 | 140.69779 | 20217 ft | 395 kts | 290° |
| 2026-05-04 07:34 | 36.09450 | 140.66917 | 19614 ft | 391 kts | 290° |
| 2026-05-04 07:34 | 36.10885 | 140.64076 | 19024 ft | 387 kts | 289° |
| 2026-05-04 07:34 | 36.12304 | 140.61263 | 18422 ft | 384 kts | 289° |
| 2026-05-04 07:34 | 36.13718 | 140.58463 | 17814 ft | 382 kts | 289° |
| 2026-05-04 07:35 | 36.15119 | 140.55688 | 17139 ft | 379 kts | 289° |
| 2026-05-04 07:35 | 36.16509 | 140.52933 | 16516 ft | 375 kts | 290° |
| 2026-05-04 07:35 | 36.17887 | 140.50203 | 15908 ft | 372 kts | 290° |
| 2026-05-04 07:35 | 36.19255 | 140.47491 | 15303 ft | 369 kts | 291° |
| 2026-05-04 07:36 | 36.20716 | 140.44858 | 14690 ft | 376 kts | 298° |
| 2026-05-04 07:36 | 36.22689 | 140.42636 | 14290 ft | 391 kts | 314° |
| 2026-05-04 07:38 | 36.38402 | 140.29087 | 12888 ft | 371 kts | 296° |
| 2026-05-04 07:38 | 36.39509 | 140.26279 | 12631 ft | 356 kts | 281° |
| 2026-05-04 07:38 | 36.39875 | 140.23290 | 12372 ft | 347 kts | 265° |
| 2026-05-04 07:38 | 36.39538 | 140.20361 | 12119 ft | 342 kts | 251° |
| 2026-05-04 07:39 | 36.38761 | 140.17576 | 11870 ft | 342 kts | 250° |
| 2026-05-04 07:39 | 36.38102 | 140.14725 | 11620 ft | 344 kts | 253° |
| 2026-05-04 07:39 | 36.37522 | 140.11887 | 11372 ft | 344 kts | 254° |
| 2026-05-04 07:39 | 36.36945 | 140.08998 | 11126 ft | 345 kts | 254° |
| 2026-05-04 07:40 | 36.36331 | 140.06125 | 10890 ft | 344 kts | 251° |
| 2026-05-04 07:40 | 36.35310 | 140.03448 | 10633 ft | 344 kts | 237° |
| 2026-05-04 07:40 | 36.33693 | 140.01261 | 10386 ft | 347 kts | 220° |
| 2026-05-04 07:40 | 36.31760 | 139.99855 | 10162 ft | 353 kts | 205° |
| 2026-05-04 07:41 | 36.29351 | 139.99161 | 9948 ft | 359 kts | 188° |
| 2026-05-04 07:41 | 36.26936 | 139.99294 | 9706 ft | 330 kts | 179° |
| 2026-05-04 07:41 | 36.24776 | 139.99368 | 9566 ft | 296 kts | 186° |
| 2026-05-04 07:41 | 36.22828 | 139.99283 | 9419 ft | 270 kts | 187° |
| 2026-05-04 07:42 | 36.20922 | 139.99168 | 9304 ft | 279 kts | 187° |
| 2026-05-04 07:42 | 36.19187 | 139.99057 | 9193 ft | 283 kts | 187° |
| 2026-05-04 07:42 | 36.17097 | 139.98927 | 9052 ft | 283 kts | 187° |
| 2026-05-04 07:42 | 36.15126 | 139.98801 | 8924 ft | 282 kts | 187° |
| 2026-05-04 07:43 | 36.13209 | 139.98677 | 8796 ft | 282 kts | 187° |
| 2026-05-04 07:43 | 36.11206 | 139.98546 | 8607 ft | 283 kts | 187° |
| 2026-05-04 07:43 | 36.09238 | 139.98417 | 8354 ft | 282 kts | 187° |
| 2026-05-04 07:43 | 36.07241 | 139.98334 | 8090 ft | 284 kts | 182° |
| 2026-05-04 07:44 | 36.05288 | 139.98802 | 7846 ft | 290 kts | 165° |
| 2026-05-04 07:44 | 36.03388 | 139.99657 | 7585 ft | 290 kts | 162° |
| 2026-05-04 07:44 | 36.01524 | 140.00526 | 7334 ft | 290 kts | 162° |
| 2026-05-04 07:44 | 35.99614 | 140.01403 | 7107 ft | 289 kts | 162° |
| 2026-05-04 07:45 | 35.97694 | 140.02276 | 6851 ft | 289 kts | 162° |
| 2026-05-04 07:45 | 35.95834 | 140.03121 | 6606 ft | 288 kts | 163° |
| 2026-05-04 07:45 | 35.93951 | 140.03974 | 6373 ft | 288 kts | 163° |
| 2026-05-04 07:45 | 35.92676 | 140.04550 | 6215 ft | 288 kts | 163° |
| 2026-05-04 07:46 | 35.92432 | 140.04660 | 6186 ft | 288 kts | 163° |
| 2026-05-04 07:46 | 35.91203 | 140.05214 | 6033 ft | 287 kts | 163° |
| 2026-05-04 07:46 | 35.88720 | 140.06333 | 5709 ft | 286 kts | 163° |
| 2026-05-04 07:46 | 35.86859 | 140.07175 | 5448 ft | 284 kts | 164° |
| 2026-05-04 07:47 | 35.85003 | 140.08011 | 5191 ft | 283 kts | 164° |
| 2026-05-04 07:47 | 35.83159 | 140.08841 | 5024 ft | 281 kts | 165° |
| 2026-05-04 07:47 | 35.82563 | 140.09108 | 5010 ft | 281 kts | 165° |
| 2026-05-04 07:49 | 35.71863 | 140.13933 | 5003 ft | 238 kts | 167° |
| 2026-05-04 07:49 | 35.70335 | 140.14620 | 4956 ft | 236 kts | 167° |
| 2026-05-04 07:49 | 35.68776 | 140.15315 | 4958 ft | 235 kts | 168° |
| 2026-05-04 07:50 | 35.67232 | 140.15997 | 4957 ft | 236 kts | 168° |
| 2026-05-04 07:50 | 35.65678 | 140.16669 | 4955 ft | 235 kts | 170° |
| 2026-05-04 07:50 | 35.64142 | 140.16881 | 4946 ft | 221 kts | 197° |
| 2026-05-04 07:50 | 35.62797 | 140.16181 | 4951 ft | 205 kts | 225° |
| 2026-05-04 07:51 | 35.61905 | 140.14868 | 4955 ft | 199 kts | 242° |
| 2026-05-04 07:51 | 35.61212 | 140.13400 | 4950 ft | 199 kts | 244° |
| 2026-05-04 07:51 | 35.60637 | 140.11861 | 4943 ft | 198 kts | 257° |
| 2026-05-04 07:51 | 35.60501 | 140.10192 | 4949 ft | 196 kts | 269° |
| 2026-05-04 07:52 | 35.60502 | 140.08507 | 4948 ft | 197 kts | 268° |
| 2026-05-04 07:52 | 35.60485 | 140.06821 | 4903 ft | 194 kts | 269° |
| 2026-05-04 07:52 | 35.60477 | 140.05210 | 4654 ft | 184 kts | 269° |
| 2026-05-04 07:52 | 35.60471 | 140.03649 | 4422 ft | 181 kts | 269° |
| 2026-05-04 07:53 | 35.60467 | 140.02172 | 4288 ft | 165 kts | 269° |
| 2026-05-04 07:54 | 35.60434 | 139.93519 | 2704 ft | 131 kts | 265° |
| 2026-05-04 07:55 | 35.60430 | 139.92431 | 2631 ft | 124 kts | 264° |
| 2026-05-04 07:55 | 35.60426 | 139.91372 | 2411 ft | 122 kts | 262° |
| 2026-05-04 07:55 | 35.60422 | 139.90352 | 2146 ft | 115 kts | 260° |
| 2026-05-04 07:55 | 35.60418 | 139.89414 | 1984 ft | 109 kts | 258° |
| 2026-05-04 07:56 | 35.60411 | 139.88468 | 1822 ft | 112 kts | 258° |
| 2026-05-04 07:56 | 35.60406 | 139.87490 | 1663 ft | 114 kts | 259° |
| 2026-05-04 07:56 | 35.60403 | 139.86509 | 1475 ft | 115 kts | 259° |
| 2026-05-04 07:56 | 35.60396 | 139.85536 | 1343 ft | 115 kts | 258° |
| 2026-05-04 07:57 | 35.60377 | 139.84536 | 1245 ft | 119 kts | 259° |
| 2026-05-04 07:57 | 35.60332 | 139.83505 | 1144 ft | 120 kts | 253° |
| 2026-05-04 07:57 | 35.60064 | 139.82521 | 975 ft | 121 kts | 242° |
| 2026-05-04 07:57 | 35.59692 | 139.81559 | 855 ft | 127 kts | 238° |
| 2026-05-04 07:58 | 35.59365 | 139.80880 | 772 ft | 129 kts | 234° |
| 2026-05-04 07:58 | 35.58835 | 139.80000 | 611 ft | 129 kts | 228° |
| 2026-05-04 07:58 | 35.58235 | 139.79195 | 413 ft | 125 kts | 226° |
| 2026-05-04 07:58 | 35.57615 | 139.78503 | 255 ft | 118 kts | 219° |
| 2026-05-04 07:59 | 35.56976 | 139.77919 | 92 ft | 112 kts | 213° |
| 2026-05-04 07:59 | 35.56390 | 139.77414 | 31 ft | 103 kts | 216° |
| 2026-05-04 07:59 | 35.55872 | 139.76968 | 28 ft | 78 kts | 217° |
| 2026-05-04 07:59 | 35.55558 | 139.76697 | 30 ft | 37 kts | 206° |
| 2026-05-04 08:00 | 35.55359 | 139.76626 | 29 ft | 19 kts | 189° |
| 2026-05-04 08:00 | 35.55237 | 139.76602 | 29 ft | 17 kts | 185° |
| 2026-05-04 08:00 | 35.55138 | 139.76596 | 29 ft | 13 kts | 183° |
| 2026-05-04 08:02 | 35.55263 | 139.76942 | 29 ft | 3 kts | 59° |
| 2026-05-04 08:02 | 35.55275 | 139.76983 | 29 ft | 7 kts | 84° |
| 2026-05-04 08:02 | 35.55252 | 139.77057 | 29 ft | 11 kts | 136° |
| 2026-05-04 08:03 | 35.55180 | 139.77102 | 29 ft | 11 kts | 151° |
| 2026-05-04 08:03 | 35.55105 | 139.77157 | 29 ft | 13 kts | 150° |
| 2026-05-04 08:03 | 35.55024 | 139.77215 | 29 ft | 14 kts | 149° |
| 2026-05-04 08:03 | 35.54930 | 139.77280 | 29 ft | 16 kts | 150° |
| 2026-05-04 08:04 | 35.54847 | 139.77302 | 29 ft | 11 kts | 208° |
| 2026-05-04 08:04 | 35.54798 | 139.77232 | 29 ft | 12 kts | 240° |
| 2026-05-04 08:04 | 35.54753 | 139.77142 | 29 ft | 13 kts | 236° |
| 2026-05-04 08:04 | 35.54680 | 139.77094 | 29 ft | 12 kts | 171° |
| 2026-05-04 08:05 | 35.54607 | 139.77137 | 29 ft | 0 kts | 151° |
| 2026-05-04 08:05 | 35.54606 | 139.77137 | 29 ft | 0 kts | 151° |
| 2026-05-04 08:08 | 35.54529 | 139.77065 | 28 ft | 0 kts | 238° |